M I D A S
Marine Information and Data Acquisition System
Tripno 765 of the Zeeleeuw from 2004-08-23 06:31:38 to 2004-08-23 10:44:42
Back to CruiseResearch ActivitiesStationsMapUnderway DataData graphs

EquipmentUnitsComment
TimeDGPSUTC
LatitudeDGPSDM.mWGS84
LongitudeDGPSDM.mWGS84
TemperatureSBE03/SBE38deg celciusITS90
ConductivitySBE21S/mITS90
SalinitySBE21 Practical Salinity Units
ChlorophylAChelsea fluorimeterg/lCalibrated in Aceton
Missing or incorrect values are displayed as -999
Sea surface data collected by the RV Zeeleeuw from 2004-08-23 06:31:38 to 2004-08-23 10:44:42
                                                                                    Next 1000 lines
Time Latitude Longitude Temperature Conductivity Salinity ChlorophylA
2004-08-23 06:31:49 51°13.594 2°56.115 20.923077 4.69564 32.697267 -0.781249
2004-08-23 06:31:53 51°13.594 2°56.115 20.923077 4.69564 32.697267 -0.781249
2004-08-23 06:31:59 51°13.594 2°56.115 20.920281 4.69564 32.697786 -0.781249
2004-08-23 06:32:04 51°13.594 2°56.115 20.919242 4.69564 32.697786 -0.781249
2004-08-23 06:32:09 51°13.593 2°56.115 20.916207 4.695745 32.698608 -0.781249
2004-08-23 06:32:13 51°13.593 2°56.115 20.922078 4.69564 32.697786 -0.781249
2004-08-23 06:32:17 51°13.593 2°56.115 20.914329 4.695534 32.698001 -0.781249
2004-08-23 06:32:22 51°13.593 2°56.115 20.897751 4.695534 32.698001 -0.781249
2004-08-23 06:32:31 51°13.593 2°56.112 20.87889 4.695534 32.698001 -0.74754
2004-08-23 06:32:33 51°13.593 2°56.112 20.87889 4.695534 32.698001 -0.74754
2004-08-23 06:32:41 51°13.594 2°56.107 20.888081 4.695429 32.697697 -0.781249
2004-08-23 06:32:45 51°13.595 2°56.104 20.8896 4.695429 32.697697 -0.781249
2004-08-23 06:32:57 51°13.597 2°56.094 20.894155 4.695429 32.698735 -0.781249
2004-08-23 06:33:02 51°13.599 2°56.088 20.89807 4.695429 32.698735 -0.781249
2004-08-23 06:33:07 51°13.6 2°56.083 20.902944 4.695218 32.69709 -0.814958
2004-08-23 06:33:14 51°13.603 2°56.074 20.902944 4.695218 32.69709 -0.814958
2004-08-23 06:33:17 51°13.604 2°56.07 20.901786 4.695323 32.698432 -0.814958
2004-08-23 06:33:22 51°13.606 2°56.063 20.904383 4.695323 32.698432 -0.814958
2004-08-23 06:33:26 51°13.607 2°56.057 20.90638 4.695323 32.698432 -0.781249
2004-08-23 06:33:33 51°13.61 2°56.047 20.903863 4.695218 32.698128 -0.781249
2004-08-23 06:33:37 51°13.611 2°56.041 20.903384 4.695218 32.698647 -0.781249
2004-08-23 06:33:42 51°13.613 2°56.033 20.903384 4.695218 32.698647 -0.781249
2004-08-23 06:33:47 51°13.615 2°56.025 20.908817 4.695112 32.697824 -0.781249
2004-08-23 06:33:52 51°13.617 2°56.016 20.910654 4.695112 32.698343 -0.781249
2004-08-23 06:33:57 51°13.62 2°56.008 20.912093 4.694901 32.696698 -0.781249
2004-08-23 06:34:02 51°13.622 2°55.999 20.915168 4.695112 32.698862 -0.781249
2004-08-23 06:34:07 51°13.625 2°55.99 20.915368 4.695007 32.69804 -0.781249
2004-08-23 06:34:13 51°13.628 2°55.979 20.916287 4.695007 32.698559 -0.781249
2004-08-23 06:34:17 51°13.63 2°55.972 20.916287 4.695007 32.698559 -0.781249
2004-08-23 06:34:21 51°13.632 2°55.964 20.937014 4.694901 32.697736 -0.781249
2004-08-23 06:34:26 51°13.635 2°55.955 20.932901 4.694901 32.697736 -0.814958
2004-08-23 06:34:30 51°13.637 2°55.948 20.932701 4.694796 32.697951 -0.781249
2004-08-23 06:34:37 51°13.641 2°55.935 20.931304 4.694796 32.697951 -0.814958
2004-08-23 06:34:42 51°13.644 2°55.926 20.921998 4.694796 32.697951 -0.781249
2004-08-23 06:34:47 51°13.646 2°55.917 20.921998 4.694796 32.697951 -0.781249
2004-08-23 06:34:52 51°13.649 2°55.908 20.921559 4.69469 32.697647 -0.814958
2004-08-23 06:34:57 51°13.651 2°55.899 20.919722 4.69469 32.697128 -0.781249
2004-08-23 06:35:02 51°13.654 2°55.89 20.917725 4.69469 32.698167 -0.781249
2004-08-23 06:35:07 51°13.656 2°55.881 20.919722 4.69469 32.698167 -0.814958
2004-08-23 06:35:12 51°13.658 2°55.872 20.919961 4.694585 32.697863 -0.781249
2004-08-23 06:35:17 51°13.66 2°55.864 20.919961 4.694585 32.697863 -0.781249
2004-08-23 06:35:22 51°13.662 2°55.855 20.92056 4.694585 32.697863 -0.814958
2004-08-23 06:35:27 51°13.663 2°55.846 20.919322 4.694479 32.697559 -0.781249
2004-08-23 06:35:32 51°13.664 2°55.838 20.921958 4.694374 32.696736 -0.781249
2004-08-23 06:35:38 51°13.666 2°55.828 20.921639 4.694585 32.698901 -0.781249
2004-08-23 06:35:42 51°13.666 2°55.821 20.921639 4.694585 32.698901 -0.781249
2004-08-23 06:35:47 51°13.667 2°55.813 20.92096 4.694374 32.697255 -0.781249
2004-08-23 06:35:52 51°13.668 2°55.805 20.921719 4.694374 32.697774 -0.781249
2004-08-23 06:35:57 51°13.669 2°55.797 20.922238 4.694374 32.697774 -0.814958
2004-08-23 06:36:02 51°13.669 2°55.789 20.923316 4.694268 32.697471 -0.781249
2004-08-23 06:36:07 51°13.669 2°55.783 20.924315 4.694268 32.697471 -0.781249
2004-08-23 06:36:12 51°13.669 2°55.777 20.924315 4.694268 32.697471 -0.781249
2004-08-23 06:36:17 51°13.67 2°55.773 20.926072 4.694268 32.697471 -0.814958
2004-08-23 06:36:22 51°13.67 2°55.77 20.936894 4.694268 32.697471 -0.781249
2004-08-23 06:36:27 51°13.67 2°55.767 20.94472 4.694163 32.696648 -0.814958
2004-08-23 06:36:30 51°13.67 2°55.767 20.952985 4.694163 32.697167 -0.781249
2004-08-23 06:36:37 51°13.671 2°55.766 20.955939 4.694163 32.697686 -0.781249
2004-08-23 06:36:42 51°13.672 2°55.767 20.955939 4.694163 32.697686 -0.781249
2004-08-23 06:36:46 51°13.673 2°55.768 20.961887 4.694057 32.696863 -0.814958
2004-08-23 06:36:49 51°13.674 2°55.769 20.990662 4.694057 32.697902 -0.781249
2004-08-23 06:36:56 51°13.678 2°55.772 21.004027 4.693952 32.697598 -0.781249
2004-08-23 06:37:01 51°13.681 2°55.774 21.024769 4.693952 32.698117 -0.74754
2004-08-23 06:37:06 51°13.685 2°55.775 21.036374 4.694057 32.699459 -0.781249
2004-08-23 06:37:18 51°13.697 2°55.776 21.027919 4.694057 32.700498 -0.781249
2004-08-23 06:37:24 51°13.704 2°55.774 21.027919 4.694057 32.700498 -0.781249
2004-08-23 06:37:29 51°13.71 2°55.771 21.026484 4.693952 32.700194 -0.814958
2004-08-23 06:37:33 51°13.714 2°55.767 21.039723 4.693635 32.697725 -0.781249
2004-08-23 06:37:39 51°13.721 2°55.761 20.989265 4.694057 32.700498 -0.814958
2004-08-23 06:37:44 51°13.725 2°55.753 21.027162 4.693846 32.699371 -0.814958
2004-08-23 06:37:49 51°13.73 2°55.746 20.975817 4.693846 32.698852 -0.781249
2004-08-23 06:37:53 51°13.733 2°55.739 20.975817 4.693846 32.698852 -0.781249
2004-08-23 06:37:59 51°13.739 2°55.727 20.992417 4.693741 32.698029 -0.74754
2004-08-23 06:38:01 51°13.742 2°55.723 20.96967 4.693846 32.698852 -0.781249
2004-08-23 06:38:09 51°13.751 2°55.706 20.944281 4.693741 32.69751 -0.781249
2004-08-23 06:38:14 51°13.758 2°55.695 20.908897 4.693635 32.697206 -0.74754
2004-08-23 06:38:18 51°13.763 2°55.686 20.903464 4.693741 32.69751 -0.781249
2004-08-23 06:38:23 51°13.771 2°55.675 20.903464 4.693741 32.69751 -0.781249
2004-08-23 06:38:28 51°13.779 2°55.664 20.895074 4.693635 32.696687 -0.781249
2004-08-23 06:38:34 51°13.79 2°55.652 20.89807 4.693635 32.697206 -0.781249
2004-08-23 06:38:43 51°13.807 2°55.635 20.89867 4.693424 32.69556 -0.814958
2004-08-23 06:38:48 51°13.818 2°55.627 20.89867 4.693424 32.69556 -0.814958
2004-08-23 06:38:53 51°13.828 2°55.62 20.910894 4.69353 32.696383 -0.814958
2004-08-23 06:38:57 51°13.837 2°55.613 20.932062 4.69353 32.697421 -0.781249
2004-08-23 06:39:01 51°13.846 2°55.607 20.926511 4.693424 32.697637 -0.781249
2004-08-23 06:39:05 51°13.855 2°55.601 20.93933 4.693319 32.697852 -0.814958
2004-08-23 06:39:16 51°13.88 2°55.585 20.93338 4.693319 32.698891 -0.781249
2004-08-23 06:39:21 51°13.891 2°55.577 20.945798 4.693108 32.697764 -0.781249
2004-08-23 06:39:27 51°13.905 2°55.568 20.967595 4.693214 32.699626 -0.781249
2004-08-23 06:39:31 51°13.914 2°55.561 20.944201 4.693108 32.698803 -0.74754
2004-08-23 06:39:37 51°13.928 2°55.552 20.935417 4.693214 32.699107 -0.781249
2004-08-23 06:39:42 51°13.94 2°55.544 20.935417 4.693214 32.699107 -0.781249
2004-08-23 06:39:47 51°13.951 2°55.536 20.949711 4.693214 32.700146 -0.781249
2004-08-23 06:39:52 51°13.963 2°55.528 20.947635 4.693108 32.699322 -0.814958
2004-08-23 06:39:57 51°13.975 2°55.52 20.936615 4.693108 32.698803 -0.781249
2004-08-23 06:40:02 51°13.987 2°55.511 20.937933 4.693003 32.699019 -0.814958
2004-08-23 06:40:07 51°13.999 2°55.503 20.949152 4.693003 32.699019 -0.781249
2004-08-23 06:40:09 51°14.003 2°55.5 20.949152 4.693003 32.699019 -0.781249
2004-08-23 06:40:17 51°14.022 2°55.486 20.936255 4.693003 32.699019 -0.814958
2004-08-23 06:40:21 51°14.032 2°55.48 20.934578 4.693003 32.698499 -0.814958
2004-08-23 06:40:26 51°14.043 2°55.471 20.954382 4.692897 32.698195 -0.74754
2004-08-23 06:40:32 51°14.057 2°55.461 20.934299 4.692897 32.698195 -0.781249
2004-08-23 06:40:37 51°14.069 2°55.454 20.937972 4.692792 32.697892 -0.814958
2004-08-23 06:40:42 51°14.081 2°55.445 20.937972 4.692792 32.697892 -0.814958
2004-08-23 06:40:47 51°14.093 2°55.437 20.936894 4.692686 32.696549 -0.781249
2004-08-23 06:40:58 51°14.118 2°55.418 20.952825 4.692792 32.698411 -0.781249
2004-08-23 06:41:03 51°14.13 2°55.409 20.959212 4.692581 32.696765 -0.814958
2004-08-23 06:41:09 51°14.144 2°55.397 20.974779 4.692686 32.698107 -0.781249
2004-08-23 06:41:13 51°14.153 2°55.389 20.967076 4.692581 32.698323 -0.781249
2004-08-23 06:41:17 51°14.162 2°55.382 20.954063 4.692581 32.698323 -0.781249
2004-08-23 06:41:24 51°14.178 2°55.367 20.954063 4.692581 32.698323 -0.781249
2004-08-23 06:41:36 51°14.205 2°55.337 21.019145 4.692475 32.698539 -0.781249
2004-08-23 06:41:41 51°14.216 2°55.323 21.019145 4.692475 32.698539 -0.781249
2004-08-23 06:41:46 51°14.227 2°55.308 20.99928 4.69237 32.697196 -0.781249
2004-08-23 06:41:58 51°14.254 2°55.268 20.99118 4.69237 32.697716 -0.814958
2004-08-23 06:42:03 51°14.264 2°55.249 21.012883 4.692264 32.696892 -0.781249
2004-08-23 06:42:09 51°14.277 2°55.227 20.98284 4.692264 32.697931 -0.781249
2004-08-23 06:42:13 51°14.285 2°55.211 20.935337 4.692264 32.697412 -0.781249
2004-08-23 06:42:17 51°14.294 2°55.196 20.924155 4.692581 32.699362 -0.781249
2004-08-23 06:42:22 51°14.305 2°55.176 20.924155 4.692581 32.699362 -0.781249
2004-08-23 06:42:29 51°14.32 2°55.147 20.953145 4.692159 32.696588 -0.814958
2004-08-23 06:42:33 51°14.329 2°55.13 20.964162 4.692159 32.697627 -0.814958
2004-08-23 06:42:37 51°14.337 2°55.113 20.932821 4.692159 32.697108 -0.781249
2004-08-23 06:42:44 51°14.353 2°55.083 20.938092 4.692159 32.697627 -0.781249
2004-08-23 06:42:49 51°14.364 2°55.062 20.915009 4.692264 32.697931 -0.781249
2004-08-23 06:42:54 51°14.376 2°55.041 20.915009 4.692264 32.697931 -0.781249
2004-08-23 06:42:58 51°14.386 2°55.024 20.902185 4.692159 32.697627 -0.781249
2004-08-23 06:43:01 51°14.393 2°55.012 20.921759 4.691948 32.695981 -0.781249
2004-08-23 06:43:09 51°14.413 2°54.979 20.918284 4.691948 32.695461 -0.781249
2004-08-23 06:43:13 51°14.421 2°54.961 21.040361 4.692159 32.698666 -0.781249
2004-08-23 06:43:18 51°14.431 2°54.937 21.048535 4.691842 32.697236 -0.781249
2004-08-23 06:43:24 51°14.44 2°54.907 21.05583 4.691737 32.697971 -0.781249
2004-08-23 06:43:29 51°14.447 2°54.881 21.05583 4.691737 32.697971 -0.781249
2004-08-23 06:43:34 51°14.451 2°54.855 21.029196 4.691948 32.699618 -0.781249
2004-08-23 06:43:39 51°14.455 2°54.828 21.032785 4.691948 32.699618 -0.781249
2004-08-23 06:43:44 51°14.457 2°54.8 21.030671 4.691631 32.698187 -0.781249
2004-08-23 06:43:46 51°14.458 2°54.789 20.981045 4.691631 32.697667 -0.814958
2004-08-23 06:43:55 51°14.461 2°54.74 20.974979 4.691737 32.697971 -0.814958
2004-08-23 06:43:57 51°14.462 2°54.729 20.974979 4.691737 32.697971 -0.814958
2004-08-23 06:44:05 51°14.465 2°54.685 20.951987 4.691631 32.697148 -0.814958
2004-08-23 06:44:09 51°14.465 2°54.663 20.964681 4.691737 32.697451 -0.781249
2004-08-23 06:44:13 51°14.466 2°54.641 20.979049 4.691526 32.696324 -0.814958
2004-08-23 06:44:17 51°14.466 2°54.619 20.988666 4.691737 32.697971 -0.781249
2004-08-23 06:44:25 51°14.464 2°54.574 20.999599 4.691631 32.698187 -0.781249
2004-08-23 06:44:30 51°14.462 2°54.547 20.999599 4.691631 32.698187 -0.781249
2004-08-23 06:44:33 51°14.46 2°54.53 21.012723 4.69142 32.697579 -0.781249
2004-08-23 06:44:40 51°14.456 2°54.492 21.000796 4.691526 32.698402 -0.781249
2004-08-23 06:44:45 51°14.451 2°54.464 20.991779 4.691526 32.698402 -0.74754
2004-08-23 06:44:48 51°14.449 2°54.448 20.982402 4.69142 32.697579 -0.781249
2004-08-23 06:44:54 51°14.443 2°54.415 20.981085 4.691315 32.695717 -0.814958
2004-08-23 06:44:58 51°14.44 2°54.393 20.981085 4.691315 32.695717 -0.814958
2004-08-23 06:45:05 51°14.433 2°54.354 20.976216 4.69142 32.69654 -0.781249
2004-08-23 06:45:16 51°14.423 2°54.294 20.969551 4.691315 32.696236 -0.781249
2004-08-23 06:45:21 51°14.418 2°54.267 20.968393 4.69142 32.697579 -0.781249
2004-08-23 06:45:25 51°14.414 2°54.245 21.002032 4.691209 32.696971 -0.814958
2004-08-23 06:45:30 51°14.408 2°54.218 21.00315 4.691315 32.698315 -0.74754
2004-08-23 06:45:34 51°14.403 2°54.197 21.00295 4.691209 32.698011 -0.781249
2004-08-23 06:45:41 51°14.393 2°54.16 21.00295 4.691209 32.698011 -0.781249
2004-08-23 06:45:45 51°14.387 2°54.139 21.001594 4.691209 32.69853 -0.814958
2004-08-23 06:45:50 51°14.38 2°54.112 20.982481 4.691209 32.698011 -0.814958
2004-08-23 06:45:54 51°14.374 2°54.091 20.97865 4.690998 32.696364 -0.781249
2004-08-23 06:46:01 51°14.364 2°54.055 20.990502 4.691104 32.696668 -0.781249
2004-08-23 06:46:05 51°14.357 2°54.035 20.985235 4.691104 32.697187 -0.781249
2004-08-23 06:46:10 51°14.35 2°54.009 20.985235 4.691104 32.697187 -0.781249
2004-08-23 06:46:14 51°14.343 2°53.989 21.005144 4.691104 32.697187 -0.781249
2004-08-23 06:46:21 51°14.331 2°53.954 20.979808 4.690998 32.697403 -0.781249
2004-08-23 06:46:25 51°14.324 2°53.934 20.994292 4.690998 32.697403 -0.781249
2004-08-23 06:46:30 51°14.315 2°53.908 20.978131 4.690998 32.697923 -0.814958
2004-08-23 06:46:34 51°14.309 2°53.888 20.978131 4.690998 32.697923 -0.814958
2004-08-23 06:46:41 51°14.296 2°53.853 21.011407 4.690893 32.697619 -0.781249
2004-08-23 06:46:45 51°14.29 2°53.833 20.976974 4.690787 32.696795 -0.74754
2004-08-23 06:46:50 51°14.281 2°53.808 20.989824 4.690893 32.698139 -0.781249
2004-08-23 06:46:56 51°14.271 2°53.778 20.981643 4.690893 32.698139 -0.781249
2004-08-23 06:47:01 51°14.263 2°53.753 20.993255 4.690787 32.697315 -0.781249
2004-08-23 06:47:05 51°14.256 2°53.733 20.993255 4.690787 32.697315 -0.781249
2004-08-23 06:47:11 51°14.246 2°53.702 20.976535 4.690787 32.696795 -0.814958
2004-08-23 06:47:13 51°14.242 2°53.692 20.987549 4.690682 32.696492 -0.814958
2004-08-23 06:47:22 51°14.227 2°53.646 20.980247 4.690576 32.695149 -0.781249
2004-08-23 06:47:28 51°14.217 2°53.616 20.98707 4.690576 32.695668 -0.781249
2004-08-23 06:47:33 51°14.208 2°53.591 20.989824 4.690682 32.697011 -0.781249
2004-08-23 06:47:38 51°14.2 2°53.565 20.989983 4.690682 32.697531 -0.814958
2004-08-23 06:47:43 51°14.191 2°53.54 20.996168 4.690682 32.698571 -0.781249
2004-08-23 06:47:47 51°14.184 2°53.519 20.989824 4.690471 32.696923 -0.74754
2004-08-23 06:47:53 51°14.174 2°53.489 20.989824 4.690471 32.696923 -0.74754
2004-08-23 06:47:58 51°14.165 2°53.463 21.004785 4.690471 32.696923 -0.814958
2004-08-23 06:48:02 51°14.158 2°53.443 20.990821 4.690471 32.697443 -0.781249
2004-08-23 06:48:08 51°14.147 2°53.413 21.011567 4.690365 32.69662 -0.814958
2004-08-23 06:48:13 51°14.138 2°53.388 20.994292 4.690576 32.698267 -0.781249
2004-08-23 06:48:18 51°14.128 2°53.363 21.009971 4.690471 32.697443 -0.781249
2004-08-23 06:48:23 51°14.12 2°53.339 21.009971 4.690471 32.697443 -0.781249
2004-08-23 06:48:27 51°14.112 2°53.319 20.99118 4.690471 32.697443 -0.781249
2004-08-23 06:48:33 51°14.101 2°53.289 21.008734 4.690154 32.695492 -0.814958
2004-08-23 06:48:37 51°14.094 2°53.269 20.990143 4.690365 32.697659 -0.781249
2004-08-23 06:48:41 51°14.086 2°53.249 20.988666 4.690154 32.696012 -0.814958
2004-08-23 06:48:45 51°14.079 2°53.229 20.999439 4.690154 32.696532 -0.781249
2004-08-23 06:48:53 51°14.065 2°53.189 20.999439 4.690154 32.696532 -0.781249
2004-08-23 06:48:58 51°14.056 2°53.164 21.004626 4.690154 32.696532 -0.781249
2004-08-23 06:49:02 51°14.049 2°53.144 20.989345 4.690154 32.696532 -0.74754
2004-08-23 06:49:06 51°14.042 2°53.124 21.001873 4.690049 32.696228 -0.814958
2004-08-23 06:49:13 51°14.029 2°53.088 20.99912 4.690049 32.696748 -0.781249
2004-08-23 06:49:18 51°14.02 2°53.064 20.99912 4.690049 32.696748 -0.781249
2004-08-23 06:49:23 51°14.011 2°53.038 21.000716 4.690049 32.696748 -0.814958
2004-08-23 06:49:28 51°14.002 2°53.014 21.028916 4.690049 32.696748 -0.781249
2004-08-23 06:49:33 51°13.993 2°52.989 21.005703 4.689943 32.696444 -0.781249
2004-08-23 06:49:37 51°13.986 2°52.969 21.000596 4.689838 32.69614 -0.814958
2004-08-23 06:49:41 51°13.979 2°52.948 21.00303 4.689838 32.69562 -0.781249
2004-08-23 06:49:45 51°13.972 2°52.928 21.00303 4.689838 32.69562 -0.781249
2004-08-23 06:49:56 51°13.952 2°52.873 21.040042 4.689838 32.69666 -0.814958
2004-08-23 06:50:01 51°13.944 2°52.848 21.009532 4.689943 32.696964 -0.74754
2004-08-23 06:50:05 51°13.936 2°52.828 21.009532 4.689943 32.696964 -0.74754
2004-08-23 06:50:13 51°13.922 2°52.788 21.035177 4.689732 32.696356 -0.814958
2004-08-23 06:50:21 51°13.908 2°52.748 21.006301 4.689732 32.696356 -0.781249
2004-08-23 06:50:26 51°13.899 2°52.723 21.018148 4.689732 32.696356 -0.814958
2004-08-23 06:50:29 51°13.894 2°52.708 21.015556 4.689733 32.697396 -0.781249
2004-08-23 06:50:36 51°13.881 2°52.672 21.015556 4.689733 32.697396 -0.781249
2004-08-23 06:50:41 51°13.872 2°52.648 21.013561 4.689838 32.697699 -0.781249
2004-08-23 06:50:46 51°13.864 2°52.622 21.012564 4.689627 32.696052 -0.814958
2004-08-23 06:50:50 51°13.856 2°52.603 21.029834 4.689522 32.695748 -0.814958
2004-08-23 06:50:54 51°13.85 2°52.582 21.002631 4.689733 32.697915 -0.781249
2004-08-23 06:51:01 51°13.837 2°52.548 21.017749 4.689416 32.695964 -0.781249
2004-08-23 06:51:05 51°13.83 2°52.527 21.017749 4.689416 32.695964 -0.781249
2004-08-23 06:51:10 51°13.821 2°52.503 21.019305 4.689522 32.696788 -0.781249
2004-08-23 06:51:14 51°13.814 2°52.483 21.036413 4.689416 32.695964 -0.781249
2004-08-23 06:51:21 51°13.801 2°52.448 21.000676 4.689416 32.695964 -0.781249
2004-08-23 06:51:25 51°13.794 2°52.428 21.044468 4.689311 32.69566 -0.814958
2004-08-23 06:51:30 51°13.785 2°52.403 21.009572 4.689522 32.696788 -0.781249
2004-08-23 06:51:34 51°13.778 2°52.383 21.009572 4.689522 32.696788 -0.781249
2004-08-23 06:51:41 51°13.765 2°52.348 21.013402 4.689205 32.695356 -0.781249
2004-08-23 06:51:45 51°13.758 2°52.328 21.028199 4.689311 32.6967 -0.781249
2004-08-23 06:51:50 51°13.749 2°52.303 21.013481 4.689416 32.697524 -0.74754
2004-08-23 06:51:54 51°13.742 2°52.284 21.035456 4.6891 32.695572 -0.781249
2004-08-23 06:52:01 51°13.729 2°52.249 21.044109 4.689205 32.696916 -0.781249
2004-08-23 06:52:05 51°13.722 2°52.229 21.044109 4.689205 32.696916 -0.781249
2004-08-23 06:52:10 51°13.713 2°52.205 21.013641 4.689205 32.695876 -0.781249
2004-08-23 06:52:14 51°13.705 2°52.185 21.048814 4.688994 32.695269 -0.74754
2004-08-23 06:52:21 51°13.693 2°52.15 21.022416 4.689311 32.6967 -0.781249
2004-08-23 06:52:25 51°13.685 2°52.131 21.043032 4.688889 32.694445 -0.781249
2004-08-23 06:52:30 51°13.676 2°52.105 21.014798 4.6891 32.696092 -0.74754
2004-08-23 06:52:34 51°13.669 2°52.086 21.051844 4.688994 32.695269 -0.814958
2004-08-23 06:52:41 51°13.656 2°52.051 21.051844 4.688994 32.695269 -0.814958
2004-08-23 06:52:45 51°13.649 2°52.031 21.023333 4.688994 32.695788 -0.781249
2004-08-23 06:52:50 51°13.64 2°52.006 21.019065 4.688889 32.694965 -0.814958
2004-08-23 06:52:56 51°13.629 2°51.977 21.039882 4.688889 32.695485 -0.814958
2004-08-23 06:53:01 51°13.621 2°51.952 21.026404 4.688783 32.695181 -0.814958
2004-08-23 06:53:13 51°13.599 2°51.892 21.018986 4.688889 32.696005 -0.814958
2004-08-23 06:53:17 51°13.592 2°51.872 21.018986 4.688889 32.696005 -0.814958
2004-08-23 06:53:21 51°13.584 2°51.853 21.050368 4.688783 32.695701 -0.781249
2004-08-23 06:53:25 51°13.577 2°51.833 21.025766 4.688783 32.695701 -0.781249
2004-08-23 06:53:30 51°13.568 2°51.808 21.038288 4.688678 32.694877 -0.781249
2004-08-23 06:53:37 51°13.555 2°51.773 21.036413 4.688783 32.696221 -0.781249
2004-08-23 06:53:41 51°13.548 2°51.754 21.050289 4.688678 32.695917 -0.781249
2004-08-23 06:53:45 51°13.54 2°51.734 21.050289 4.688678 32.695917 -0.781249
2004-08-23 06:53:53 51°13.526 2°51.695 21.028996 4.688678 32.695917 -0.781249
2004-08-23 06:53:57 51°13.518 2°51.675 21.031828 4.688572 32.695093 -0.781249
2004-08-23 06:54:02 51°13.509 2°51.651 21.03434 4.688678 32.696437 -0.781249
2004-08-23 06:54:08 51°13.498 2°51.621 21.035855 4.688467 32.694789 -0.814958
2004-08-23 06:54:13 51°13.489 2°51.596 21.028996 4.688678 32.696957 -0.781249
2004-08-23 06:54:18 51°13.479 2°51.572 21.028996 4.688678 32.696957 -0.781249
2004-08-23 06:54:22 51°13.472 2°51.552 21.028159 4.688361 32.695005 -0.781249
2004-08-23 06:54:28 51°13.461 2°51.522 21.036613 4.688678 32.696957 -0.781249
2004-08-23 06:54:33 51°13.452 2°51.497 21.053996 4.688361 32.695525 -0.781249
2004-08-23 06:54:38 51°13.443 2°51.472 21.029076 4.688467 32.696349 -0.781249
2004-08-23 06:54:41 51°13.438 2°51.458 21.048614 4.688361 32.695005 -0.814958
2004-08-23 06:54:49 51°13.424 2°51.418 21.034459 4.688467 32.696349 -0.814958
2004-08-23 06:54:53 51°13.417 2°51.398 21.051963 4.688361 32.696045 -0.814958
2004-08-23 06:55:01 51°13.402 2°51.358 21.029275 4.688361 32.696045 -0.781249
2004-08-23 06:55:05 51°13.395 2°51.338 21.029275 4.688361 32.696045 -0.781249
2004-08-23 06:55:16 51°13.376 2°51.283 21.027202 4.688256 32.695741 -0.781249
2004-08-23 06:55:22 51°13.365 2°51.253 21.052282 4.688256 32.696781 -0.781249
2004-08-23 06:55:27 51°13.357 2°51.228 21.040959 4.688256 32.695741 -0.781249
2004-08-23 06:55:31 51°13.349 2°51.209 21.058501 4.688045 32.695654 -0.74754
2004-08-23 06:55:37 51°13.339 2°51.179 21.046461 4.68815 32.695957 -0.781249
2004-08-23 06:55:42 51°13.329 2°51.154 21.050727 4.687939 32.69535 -0.781249
2004-08-23 06:55:47 51°13.32 2°51.129 21.050727 4.687939 32.69535 -0.781249
2004-08-23 06:55:52 51°13.311 2°51.105 21.053199 4.68815 32.696477 -0.781249
2004-08-23 06:56:02 51°13.293 2°51.056 21.043989 4.688045 32.696174 -0.781249
2004-08-23 06:56:06 51°13.286 2°51.036 21.067749 4.687939 32.69587 -0.781249
2004-08-23 06:56:13 51°13.274 2°51.001 21.049172 4.688045 32.696174 -0.74754
2004-08-23 06:56:18 51°13.265 2°50.976 21.059737 4.687939 32.69535 -0.781249
2004-08-23 06:56:22 51°13.258 2°50.957 21.059737 4.687939 32.69535 -0.781249
2004-08-23 06:56:28 51°13.247 2°50.927 21.054873 4.687939 32.69587 -0.781249
2004-08-23 06:56:33 51°13.238 2°50.902 21.059139 4.687834 32.695566 -0.781249
2004-08-23 06:56:38 51°13.229 2°50.877 21.066912 4.687834 32.696086 -0.781249
2004-08-23 06:56:43 51°13.22 2°50.853 21.070339 4.687834 32.696086 -0.781249
2004-08-23 06:56:48 51°13.211 2°50.828 21.058302 4.687834 32.696606 -0.781249
2004-08-23 06:56:53 51°13.202 2°50.803 21.058302 4.687834 32.696606 -0.781249
2004-08-23 06:57:02 51°13.186 2°50.759 21.05866 4.687728 32.695782 -0.814958
2004-08-23 06:57:12 51°13.168 2°50.709 21.053917 4.687728 32.696302 -0.781249
2004-08-23 06:57:17 51°13.159 2°50.684 21.053917 4.687728 32.696302 -0.781249
2004-08-23 06:57:21 51°13.152 2°50.664 21.069423 4.687517 32.695694 -0.814958
2004-08-23 06:57:25 51°13.145 2°50.644 21.062846 4.687623 32.696518 -0.781249
2004-08-23 06:57:36 51°13.125 2°50.59 21.058621 4.687623 32.696518 -0.781249
2004-08-23 06:57:41 51°13.116 2°50.565 21.058621 4.687623 32.696518 -0.781249
2004-08-23 06:57:47 51°13.105 2°50.535 21.089906 4.687517 32.696214 -0.781249
2004-08-23 06:57:51 51°13.098 2°50.516 21.077832 4.687412 32.69539 -0.781249
2004-08-23 06:57:57 51°13.087 2°50.486 21.066991 4.687517 32.696735 -0.781249
2004-08-23 06:58:02 51°13.078 2°50.461 21.074524 4.687201 32.694262 -0.814958
2004-08-23 06:58:07 51°13.069 2°50.437 21.083411 4.687412 32.696431 -0.781249
2004-08-23 06:58:11 51°13.062 2°50.417 21.083411 4.687412 32.696431 -0.781249
2004-08-23 06:58:17 51°13.051 2°50.387 21.062328 4.687306 32.695607 -0.781249
2004-08-23 06:58:22 51°13.042 2°50.363 21.089826 4.687095 32.694479 -0.74754
2004-08-23 06:58:27 51°13.033 2°50.338 21.059019 4.687306 32.696127 -0.74754
2004-08-23 06:58:31 51°13.025 2°50.319 21.090942 4.687095 32.694999 -0.74754
2004-08-23 06:58:37 51°13.014 2°50.289 21.074524 4.687201 32.695823 -0.781249
2004-08-23 06:58:42 51°13.005 2°50.264 21.074524 4.687201 32.695823 -0.781249
2004-08-23 06:58:46 51°12.998 2°50.245 21.066672 4.687306 32.697167 -0.781249
2004-08-23 06:58:51 51°12.989 2°50.22 21.090623 4.68699 32.695215 -0.781249
2004-08-23 06:58:57 51°12.978 2°50.19 21.080303 4.687095 32.695519 -0.814958
2004-08-23 06:59:02 51°12.969 2°50.165 21.078948 4.68699 32.695215 -0.781249
2004-08-23 06:59:07 51°12.96 2°50.14 21.079107 4.68699 32.695215 -0.781249
2004-08-23 06:59:11 51°12.952 2°50.12 21.079107 4.68699 32.695215 -0.781249
2004-08-23 06:59:17 51°12.942 2°50.09 21.07552 4.686884 32.694391 -0.781249
2004-08-23 06:59:22 51°12.933 2°50.065 21.078828 4.686884 32.694911 -0.781249
2004-08-23 06:59:27 51°12.924 2°50.04 21.078948 4.686884 32.694911 -0.781249
2004-08-23 06:59:29 51°12.921 2°50.03 21.084885 4.686779 32.694087 -0.781249
2004-08-23 06:59:37 51°12.906 2°49.99 21.126753 4.686779 32.695128 -0.814958
2004-08-23 06:59:41 51°12.899 2°49.97 21.080024 4.686884 32.695952 -0.781249
2004-08-23 06:59:47 51°12.888 2°49.941 21.080024 4.686884 32.695952 -0.781249
2004-08-23 06:59:52 51°12.879 2°49.916 21.099389 4.686779 32.695648 -0.781249
2004-08-23 06:59:57 51°12.869 2°49.891 21.094408 4.686779 32.695648 -0.781249
2004-08-23 07:00:02 51°12.861 2°49.866 21.071097 4.686779 32.695648 -0.814958
2004-08-23 07:00:05 51°12.855 2°49.851 21.098313 4.686673 32.695344 -0.74754
2004-08-23 07:00:14 51°12.839 2°49.806 21.076198 4.686673 32.695344 -0.74754
2004-08-23 07:00:19 51°12.83 2°49.782 21.096679 4.686568 32.693999 -0.781249
2004-08-23 07:00:25 51°12.819 2°49.752 21.098632 4.686568 32.69504 -0.74754
2004-08-23 07:00:30 51°12.81 2°49.727 21.098632 4.686568 32.69504 -0.74754
2004-08-23 07:00:35 51°12.801 2°49.703 21.089428 4.686568 32.69504 -0.74754
2004-08-23 07:00:37 51°12.798 2°49.692 21.097715 4.686568 32.69504 -0.814958
2004-08-23 07:00:45 51°12.783 2°49.653 21.105962 4.686357 32.694432 -0.814958
2004-08-23 07:00:50 51°12.774 2°49.628 21.094249 4.686568 32.69556 -0.814958
2004-08-23 07:00:54 51°12.767 2°49.608 21.099986 4.686357 32.694432 -0.814958
2004-08-23 07:00:58 51°12.76 2°49.588 21.091858 4.686463 32.695777 -0.814958
2004-08-23 07:01:05 51°12.747 2°49.554 21.091858 4.686463 32.695777 -0.814958
2004-08-23 07:01:09 51°12.74 2°49.533 21.097835 4.686357 32.694952 -0.781249
2004-08-23 07:01:14 51°12.731 2°49.509 21.107476 4.686463 32.696297 -0.814958
2004-08-23 07:01:19 51°12.722 2°49.484 21.092576 4.686357 32.694952 -0.781249
2004-08-23 07:01:25 51°12.711 2°49.455 21.119784 4.686252 32.694648 -0.781249
2004-08-23 07:01:29 51°12.703 2°49.435 21.09401 4.686357 32.695473 -0.814958
2004-08-23 07:01:34 51°12.694 2°49.41 21.09401 4.686357 32.695473 -0.814958
2004-08-23 07:01:38 51°12.687 2°49.39 21.122173 4.686252 32.695169 -0.781249
2004-08-23 07:01:45 51°12.674 2°49.355 21.092416 4.686252 32.694648 -0.781249
2004-08-23 07:01:49 51°12.666 2°49.336 21.123448 4.686041 32.694041 -0.781249
2004-08-23 07:01:55 51°12.656 2°49.306 21.095843 4.686252 32.695689 -0.814958
2004-08-23 07:01:58 51°12.651 2°49.291 21.095843 4.686252 32.695689 -0.814958
2004-08-23 07:02:05 51°12.638 2°49.256 21.119385 4.686146 32.694865 -0.814958
2004-08-23 07:02:10 51°12.629 2°49.231 21.11118 4.686252 32.696209 -0.74754
2004-08-23 07:02:15 51°12.62 2°49.206 21.098154 4.685935 32.693737 -0.781249
2004-08-23 07:02:19 51°12.613 2°49.186 21.103293 4.685935 32.693737 -0.781249
2004-08-23 07:02:25 51°12.602 2°49.157 21.121377 4.686041 32.695081 -0.781249
2004-08-23 07:02:30 51°12.593 2°49.131 21.121377 4.686041 32.695081 -0.781249
2004-08-23 07:02:34 51°12.586 2°49.112 21.105564 4.686041 32.695081 -0.781249
2004-08-23 07:02:38 51°12.578 2°49.092 21.133085 4.68583 32.693953 -0.781249
2004-08-23 07:02:45 51°12.566 2°49.057 21.108153 4.685935 32.694777 -0.781249
2004-08-23 07:02:49 51°12.559 2°49.037 21.125917 4.68583 32.694473 -0.781249
2004-08-23 07:02:55 51°12.548 2°49.007 21.117036 4.68583 32.694994 -0.814958
2004-08-23 07:02:58 51°12.542 2°48.992 21.117036 4.68583 32.694994 -0.814958
2004-08-23 07:03:05 51°12.529 2°48.957 21.119346 4.68583 32.694994 -0.781249
2004-08-23 07:03:10 51°12.52 2°48.933 21.125678 4.68583 32.694994 -0.814958
2004-08-23 07:03:14 51°12.513 2°48.913 21.111698 4.68583 32.694994 -0.74754
2004-08-23 07:03:18 51°12.505 2°48.893 21.135674 4.685724 32.69469 -0.781249
2004-08-23 07:03:25 51°12.493 2°48.858 21.112734 4.685724 32.69521 -0.781249
2004-08-23 07:03:30 51°12.484 2°48.834 21.112734 4.685724 32.69521 -0.781249
2004-08-23 07:03:34 51°12.476 2°48.814 21.12743 4.685513 32.694082 -0.781249
2004-08-23 07:03:37 51°12.471 2°48.798 21.115442 4.685724 32.69521 -0.781249
2004-08-23 07:03:45 51°12.456 2°48.759 21.120859 4.685513 32.694082 -0.781249
2004-08-23 07:03:50 51°12.447 2°48.734 21.128187 4.685619 32.694906 -0.814958
2004-08-23 07:03:54 51°12.44 2°48.714 21.122134 4.685619 32.695427 -0.814958
2004-08-23 07:03:57 51°12.435 2°48.699 21.122134 4.685619 32.695427 -0.814958
2004-08-23 07:04:05 51°12.421 2°48.659 21.121775 4.685513 32.694602 -0.814958
2004-08-23 07:04:10 51°12.412 2°48.633 21.128426 4.685619 32.695947 -0.781249
2004-08-23 07:04:14 51°12.405 2°48.613 21.123209 4.685513 32.695123 -0.781249
2004-08-23 07:04:19 51°12.396 2°48.588 21.139815 4.685408 32.694819 -0.781249
2004-08-23 07:04:30 51°12.377 2°48.533 21.144593 4.685513 32.696684 -0.814958
2004-08-23 07:04:37 51°12.364 2°48.499 21.132448 4.685513 32.695643 -0.814958
2004-08-23 07:04:41 51°12.357 2°48.479 21.152555 4.685302 32.695035 -0.814958
2004-08-23 07:04:46 51°12.347 2°48.454 21.152555 4.685302 32.695035 -0.814958
2004-08-23 07:04:51 51°12.338 2°48.429 21.131413 4.685302 32.695035 -0.74754
2004-08-23 07:04:57 51°12.327 2°48.4 21.143319 4.685302 32.695556 -0.781249
2004-08-23 07:05:02 51°12.318 2°48.374 21.131851 4.685302 32.695556 -0.74754
2004-08-23 07:05:05 51°12.313 2°48.359 21.139974 4.685091 32.693907 -0.781249
2004-08-23 07:05:11 51°12.302 2°48.329 21.13651 4.685302 32.696076 -0.74754
2004-08-23 07:05:17 51°12.291 2°48.3 21.13651 4.685302 32.696076 -0.74754
2004-08-23 07:05:22 51°12.282 2°48.274 21.137824 4.684986 32.694123 -0.781249
2004-08-23 07:05:27 51°12.273 2°48.249 21.130616 4.685197 32.695772 -0.74754
2004-08-23 07:05:30 51°12.268 2°48.234 21.144394 4.684986 32.694644 -0.781249
2004-08-23 07:05:37 51°12.255 2°48.2 21.153988 4.684986 32.695164 -0.814958
2004-08-23 07:05:42 51°12.246 2°48.174 21.153988 4.684986 32.695164 -0.814958
2004-08-23 07:05:46 51°12.239 2°48.155 21.146981 4.685091 32.695989 -0.814958
2004-08-23 07:05:49 51°12.233 2°48.14 21.141407 4.684986 32.695164 -0.781249
2004-08-23 07:05:57 51°12.218 2°48.1 21.166209 4.68488 32.69434 -0.781249
2004-08-23 07:06:02 51°12.209 2°48.075 21.13874 4.684986 32.695164 -0.814958
2004-08-23 07:06:05 51°12.204 2°48.06 21.154983 4.68488 32.69486 -0.781249
2004-08-23 07:06:10 51°12.195 2°48.036 21.154983 4.68488 32.69486 -0.781249
2004-08-23 07:06:17 51°12.182 2°48 21.148574 4.684669 32.693732 -0.814958
2004-08-23 07:06:22 51°12.173 2°47.976 21.157372 4.68488 32.695381 -0.781249
2004-08-23 07:06:25 51°12.168 2°47.96 21.147061 4.684775 32.694556 -0.814958
2004-08-23 07:06:32 51°12.155 2°47.925 21.166448 4.684775 32.695077 -0.814958
2004-08-23 07:06:37 51°12.146 2°47.9 21.152953 4.684775 32.695077 -0.781249
2004-08-23 07:06:42 51°12.137 2°47.876 21.167841 4.684564 32.693948 -0.814958
2004-08-23 07:06:46 51°12.129 2°47.856 21.167841 4.684564 32.693948 -0.814958
2004-08-23 07:06:51 51°12.12 2°47.831 21.167045 4.684669 32.695293 -0.781249
2004-08-23 07:06:57 51°12.109 2°47.8 21.152396 4.684564 32.693948 -0.781249
2004-08-23 07:07:02 51°12.099 2°47.776 21.170348 4.684564 32.694469 -0.781249
2004-08-23 07:07:07 51°12.09 2°47.751 21.163462 4.684564 32.694469 -0.74754
2004-08-23 07:07:11 51°12.083 2°47.731 21.162786 4.684564 32.694989 -0.781249
2004-08-23 07:07:17 51°12.072 2°47.701 21.162786 4.684564 32.694989 -0.781249
2004-08-23 07:07:22 51°12.062 2°47.676 21.167124 4.684564 32.694989 -0.848668
2004-08-23 07:07:27 51°12.054 2°47.651 21.148056 4.684564 32.694989 -0.781249
2004-08-23 07:07:31 51°12.046 2°47.631 21.167323 4.684458 32.694685 -0.781249
2004-08-23 07:07:37 51°12.035 2°47.601 21.166607 4.684353 32.694382 -0.814958
2004-08-23 07:07:41 51°12.028 2°47.581 21.151958 4.684458 32.694685 -0.781249
2004-08-23 07:07:47 51°12.018 2°47.551 21.151958 4.684458 32.694685 -0.781249
2004-08-23 07:07:52 51°12.009 2°47.526 21.188097 4.684353 32.694382 -0.781249
2004-08-23 07:07:57 51°12 2°47.5 21.16402 4.684247 32.694078 -0.781249
2004-08-23 07:08:01 51°11.993 2°47.48 21.164855 4.684353 32.695423 -0.814958
2004-08-23 07:08:07 51°11.982 2°47.45 21.178148 4.684142 32.693253 -0.781249
2004-08-23 07:08:10 51°11.977 2°47.435 21.193946 4.684247 32.695119 -0.814958
2004-08-23 07:08:23 51°11.953 2°47.37 21.184157 4.684142 32.694294 -0.781249
2004-08-23 07:08:27 51°11.946 2°47.35 21.166925 4.684142 32.694294 -0.781249
2004-08-23 07:08:33 51°11.935 2°47.32 21.201385 4.684142 32.694815 -0.74754
2004-08-23 07:08:38 51°11.926 2°47.295 21.170666 4.684142 32.694815 -0.814958
2004-08-23 07:08:43 51°11.917 2°47.27 21.195975 4.684036 32.69399 -0.781249
2004-08-23 07:08:45 51°11.913 2°47.26 21.195975 4.684036 32.69399 -0.781249
2004-08-23 07:08:53 51°11.898 2°47.22 21.17982 4.683931 32.693686 -0.74754
2004-08-23 07:08:57 51°11.891 2°47.2 21.182645 4.684036 32.695031 -0.781249
2004-08-23 07:09:03 51°11.88 2°47.17 21.171502 4.684036 32.694511 -0.781249
2004-08-23 07:09:07 51°11.873 2°47.15 21.18181 4.683825 32.693382 -0.814958
2004-08-23 07:09:13 51°11.862 2°47.12 21.18356 4.683931 32.694207 -0.814958
2004-08-23 07:09:17 51°11.855 2°47.1 21.202658 4.683825 32.694423 -0.781249
2004-08-23 07:09:23 51°11.844 2°47.07 21.202658 4.683825 32.694423 -0.781249
2004-08-23 07:09:27 51°11.837 2°47.05 21.178069 4.683931 32.694207 -0.781249
2004-08-23 07:09:33 51°11.826 2°47.02 21.191439 4.683825 32.694423 -0.814958
2004-08-23 07:09:37 51°11.818 2°47 21.185192 4.68372 32.693599 -0.781249
2004-08-23 07:09:45 51°11.804 2°46.96 21.186863 4.683614 32.692774 -0.74754
2004-08-23 07:09:52 51°11.792 2°46.925 21.184197 4.68372 32.69464 -0.74754
2004-08-23 07:09:57 51°11.783 2°46.9 21.186624 4.68372 32.694119 -0.781249
2004-08-23 07:10:02 51°11.774 2°46.875 21.187619 4.68372 32.69464 -0.781249
2004-08-23 07:10:07 51°11.765 2°46.85 21.197367 4.68372 32.69464 -0.814958
2004-08-23 07:10:11 51°11.758 2°46.83 21.191877 4.683614 32.694336 -0.74754
2004-08-23 07:10:17 51°11.747 2°46.799 21.191877 4.683614 32.694336 -0.74754
2004-08-23 07:10:22 51°11.738 2°46.774 21.189012 4.683614 32.694336 -0.781249
2004-08-23 07:10:27 51°11.73 2°46.748 21.196691 4.683614 32.694857 -0.781249
2004-08-23 07:10:31 51°11.722 2°46.728 21.193747 4.683509 32.695074 -0.781249
2004-08-23 07:10:37 51°11.712 2°46.697 21.190484 4.683614 32.694857 -0.781249
2004-08-23 07:10:42 51°11.703 2°46.672 21.2132 4.683509 32.694553 -0.74754
2004-08-23 07:10:45 51°11.697 2°46.657 21.2132 4.683509 32.694553 -0.74754
2004-08-23 07:10:52 51°11.685 2°46.621 21.197487 4.683614 32.695378 -0.781249
2004-08-23 07:10:57 51°11.676 2°46.596 21.193747 4.683403 32.693728 -0.781249
2004-08-23 07:11:01 51°11.669 2°46.576 21.203772 4.683298 32.693424 -0.74754
2004-08-23 07:11:05 51°11.662 2°46.556 21.199794 4.683298 32.693945 -0.74754
2004-08-23 07:11:10 51°11.653 2°46.53 21.204687 4.683298 32.693424 -0.781249
2004-08-23 07:11:17 51°11.641 2°46.494 21.204687 4.683298 32.693424 -0.781249
2004-08-23 07:11:22 51°11.632 2°46.469 21.209819 4.683298 32.693945 -0.781249
2004-08-23 07:11:25 51°11.627 2°46.454 21.201346 4.683193 32.693641 -0.814958
2004-08-23 07:11:30 51°11.617 2°46.428 21.207591 4.683298 32.694986 -0.781249
2004-08-23 07:11:37 51°11.605 2°46.393 21.204409 4.683193 32.694162 -0.814958
2004-08-23 07:11:42 51°11.596 2°46.368 21.217337 4.683193 32.694682 -0.781249
2004-08-23 07:11:45 51°11.591 2°46.352 21.217337 4.683193 32.694682 -0.781249
2004-08-23 07:11:52 51°11.578 2°46.317 21.203335 4.683193 32.694682 -0.781249
2004-08-23 07:11:57 51°11.57 2°46.291 21.20592 4.683193 32.694162 -0.814958
2004-08-23 07:12:02 51°11.56 2°46.266 21.228273 4.682982 32.693554 -0.814958
2004-08-23 07:12:06 51°11.554 2°46.245 21.205324 4.683087 32.693858 -0.781249
2004-08-23 07:12:11 51°11.545 2°46.22 21.219922 4.682982 32.693033 -0.781249
2004-08-23 07:12:17 51°11.534 2°46.189 21.219922 4.682982 32.693033 -0.781249
2004-08-23 07:12:22 51°11.525 2°46.164 21.224416 4.682982 32.694074 -0.781249
2004-08-23 07:12:27 51°11.516 2°46.139 21.234755 4.682876 32.69377 -0.781249
2004-08-23 07:12:31 51°11.509 2°46.118 21.223382 4.682982 32.694595 -0.781249
2004-08-23 07:12:37 51°11.498 2°46.088 21.219166 4.682771 32.692946 -0.781249
2004-08-23 07:12:42 51°11.489 2°46.063 21.219166 4.682771 32.692946 -0.781249
2004-08-23 07:12:46 51°11.482 2°46.042 21.224376 4.682982 32.695637 -0.781249
2004-08-23 07:12:51 51°11.473 2°46.016 21.219166 4.682771 32.693466 -0.781249
2004-08-23 07:12:57 51°11.462 2°45.986 21.213478 4.682876 32.694291 -0.814958
2004-08-23 07:13:02 51°11.454 2°45.96 21.230262 4.682771 32.693987 -0.814958
2004-08-23 07:13:05 51°11.449 2°45.944 21.180138 4.682771 32.693987 -0.781249
2004-08-23 07:13:12 51°11.439 2°45.907 21.180138 4.682771 32.693987 -0.781249
2004-08-23 07:13:17 51°11.432 2°45.88 21.193985 4.682665 32.693162 -0.781249
2004-08-23 07:13:21 51°11.427 2°45.858 21.201425 4.682665 32.693683 -0.814958
2004-08-23 07:13:27 51°11.419 2°45.825 21.219604 4.682665 32.693683 -0.814958
2004-08-23 07:13:32 51°11.413 2°45.798 21.202101 4.682665 32.694204 -0.781249
2004-08-23 07:13:35 51°11.41 2°45.781 21.209381 4.682771 32.694508 -0.74754
2004-08-23 07:13:42 51°11.402 2°45.742 21.231773 4.682665 32.694204 -0.781249
2004-08-23 07:13:47 51°11.397 2°45.714 21.231773 4.682665 32.694204 -0.781249
2004-08-23 07:13:52 51°11.392 2°45.686 21.239209 4.68256 32.6939 -0.781249
2004-08-23 07:13:57 51°11.386 2°45.657 21.240044 4.682454 32.693075 -0.781249
2004-08-23 07:14:01 51°11.382 2°45.635 21.244258 4.68256 32.694421 -0.781249
2004-08-23 07:14:07 51°11.376 2°45.601 21.247598 4.682454 32.694117 -0.781249
2004-08-23 07:14:12 51°11.371 2°45.573 21.250898 4.682349 32.693813 -0.781249
2004-08-23 07:14:17 51°11.366 2°45.545 21.250898 4.682349 32.693813 -0.781249
2004-08-23 07:14:22 51°11.36 2°45.517 21.258093 4.682349 32.693813 -0.781249
2004-08-23 07:14:25 51°11.357 2°45.5 21.243026 4.682454 32.694638 -0.814958
2004-08-23 07:14:32 51°11.35 2°45.461 21.250341 4.682349 32.693813 -0.781249
2004-08-23 07:14:37 51°11.344 2°45.433 21.234238 4.682349 32.694334 -0.814958
2004-08-23 07:14:41 51°11.34 2°45.41 21.245014 4.682243 32.693509 -0.781249
2004-08-23 07:14:46 51°11.335 2°45.383 21.245014 4.682243 32.693509 -0.781249
2004-08-23 07:14:51 51°11.33 2°45.354 21.236744 4.682138 32.693205 -0.781249
2004-08-23 07:14:57 51°11.324 2°45.32 21.236147 4.682243 32.69455 -0.814958
2004-08-23 07:15:02 51°11.32 2°45.291 21.23062 4.682243 32.69403 -0.781249
2004-08-23 07:15:05 51°11.316 2°45.275 21.274031 4.682138 32.694246 -0.814958
2004-08-23 07:15:09 51°11.312 2°45.252 21.235233 4.682243 32.695071 -0.814958
2004-08-23 07:15:17 51°11.304 2°45.206 21.235233 4.682243 32.695071 -0.814958
2004-08-23 07:15:22 51°11.298 2°45.178 21.249904 4.682032 32.693422 -0.781249
2004-08-23 07:15:25 51°11.295 2°45.161 21.238891 4.682032 32.693942 -0.74754
2004-08-23 07:15:29 51°11.291 2°45.138 21.237579 4.682032 32.693422 -0.781249
2004-08-23 07:15:37 51°11.284 2°45.092 21.245849 4.681927 32.693117 -0.781249
2004-08-23 07:15:42 51°11.279 2°45.063 21.257696 4.682032 32.694463 -0.781249
2004-08-23 07:15:45 51°11.276 2°45.046 21.257696 4.682032 32.694463 -0.781249
2004-08-23 07:15:54 51°11.267 2°44.995 21.261909 4.681821 32.693334 -0.781249
2004-08-23 07:15:58 51°11.262 2°44.972 21.251494 4.681821 32.693334 -0.814958
2004-08-23 07:16:09 51°11.251 2°44.909 21.251216 4.681716 32.692509 -0.781249
2004-08-23 07:16:15 51°11.244 2°44.875 21.291277 4.681821 32.694897 -0.781249
2004-08-23 07:16:21 51°11.238 2°44.84 21.236744 4.681927 32.69468 -0.781249
2004-08-23 07:16:26 51°11.232 2°44.813 21.287105 4.681716 32.693551 -0.781249
2004-08-23 07:16:29 51°11.229 2°44.796 21.24724 4.681821 32.694376 -0.781249
2004-08-23 07:16:36 51°11.221 2°44.756 21.24724 4.681821 32.694376 -0.781249
2004-08-23 07:16:38 51°11.219 2°44.744 21.252249 4.681716 32.694072 -0.781249
2004-08-23 07:16:46 51°11.211 2°44.699 21.263578 4.681716 32.693551 -0.814958
2004-08-23 07:16:49 51°11.208 2°44.682 21.265407 4.68161 32.693247 -0.814958
2004-08-23 07:16:54 51°11.202 2°44.654 21.288178 4.68161 32.693247 -0.74754
2004-08-23 07:17:01 51°11.194 2°44.614 21.262505 4.68161 32.693768 -0.814958
2004-08-23 07:17:05 51°11.19 2°44.591 21.265089 4.68161 32.694289 -0.781249
2004-08-23 07:17:11 51°11.184 2°44.557 21.265089 4.68161 32.694289 -0.781249
2004-08-23 07:17:14 51°11.181 2°44.539 21.259524 4.68161 32.694289 -0.74754
2004-08-23 07:17:21 51°11.174 2°44.499 21.278323 4.681399 32.692639 -0.781249
2004-08-23 07:17:26 51°11.169 2°44.471 21.259763 4.681505 32.693985 -0.814958
2004-08-23 07:17:30 51°11.165 2°44.448 21.295489 4.681399 32.693681 -0.781249
2004-08-23 07:17:34 51°11.161 2°44.425 21.295489 4.681399 32.693681 -0.781249
2004-08-23 07:17:41 51°11.154 2°44.385 21.269024 4.681505 32.695027 -0.814958
2004-08-23 07:17:46 51°11.15 2°44.356 21.273912 4.681294 32.693377 -0.781249
2004-08-23 07:17:51 51°11.145 2°44.328 21.276138 4.681399 32.694202 -0.781249
2004-08-23 07:17:54 51°11.142 2°44.31 21.258371 4.681399 32.694202 -0.781249
2004-08-23 07:17:58 51°11.139 2°44.287 21.279118 4.681294 32.693377 -0.781249
2004-08-23 07:18:05 51°11.132 2°44.246 21.293304 4.681294 32.694419 -0.74754
2004-08-23 07:18:10 51°11.128 2°44.217 21.293304 4.681294 32.694419 -0.74754
2004-08-23 07:18:14 51°11.124 2°44.194 21.283768 4.681188 32.693073 -0.74754
2004-08-23 07:18:21 51°11.117 2°44.154 21.308241 4.681188 32.694115 -0.814958
2004-08-23 07:18:26 51°11.113 2°44.125 21.270137 4.681294 32.69494 -0.814958
2004-08-23 07:18:29 51°11.11 2°44.108 21.298747 4.681083 32.69329 -0.781249
2004-08-23 07:18:36 51°11.104 2°44.068 21.280748 4.681188 32.694115 -0.781249
2004-08-23 07:18:41 51°11.099 2°44.039 21.280748 4.681188 32.694115 -0.781249
2004-08-23 07:18:45 51°11.095 2°44.016 21.281304 4.680977 32.692465 -0.781249
2004-08-23 07:18:50 51°11.091 2°43.987 21.278482 4.680977 32.693507 -0.781249
2004-08-23 07:18:54 51°11.087 2°43.964 21.280867 4.681083 32.694332 -0.781249
2004-08-23 07:19:01 51°11.08 2°43.924 21.279555 4.680977 32.693507 -0.814958
2004-08-23 07:19:05 51°11.077 2°43.901 21.313723 4.680872 32.693724 -0.781249
2004-08-23 07:19:10 51°11.072 2°43.872 21.313723 4.680872 32.693724 -0.781249
2004-08-23 07:19:15 51°11.067 2°43.843 21.278244 4.681083 32.694853 -0.814958
2004-08-23 07:19:19 51°11.063 2°43.82 21.294694 4.680872 32.694245 -0.781249
2004-08-23 07:19:26 51°11.057 2°43.78 21.285595 4.680977 32.694549 -0.814958
2004-08-23 07:19:31 51°11.052 2°43.751 21.289648 4.680661 32.692074 -0.781249
2004-08-23 07:19:33 51°11.05 2°43.739 21.28786 4.680872 32.694245 -0.781249
2004-08-23 07:19:38 51°11.046 2°43.711 21.28786 4.680872 32.694245 -0.781249
2004-08-23 07:19:46 51°11.038 2°43.665 21.313802 4.680872 32.694245 -0.781249
2004-08-23 07:19:50 51°11.035 2°43.641 21.289569 4.680766 32.69342 -0.814958
2004-08-23 07:19:54 51°11.031 2°43.618 21.315709 4.680661 32.693116 -0.814958
2004-08-23 07:20:01 51°11.025 2°43.578 21.284523 4.680872 32.695287 -0.781249
2004-08-23 07:20:05 51°11.021 2°43.555 21.295529 4.680555 32.692812 -0.814958
2004-08-23 07:20:14 51°11.013 2°43.503 21.308519 4.680661 32.693637 -0.814958
2004-08-23 07:20:18 51°11.01 2°43.479 21.289648 4.680661 32.694158 -0.781249
2004-08-23 07:20:29 51°11 2°43.416 21.325916 4.680555 32.693854 -0.781249
2004-08-23 07:20:35 51°10.994 2°43.381 21.325916 4.680555 32.693854 -0.781249
2004-08-23 07:20:41 51°10.989 2°43.347 21.296522 4.680661 32.693637 -0.74754
2004-08-23 07:20:46 51°10.984 2°43.318 21.339774 4.68045 32.69355 -0.781249
2004-08-23 07:20:49 51°10.981 2°43.301 21.295052 4.680661 32.694679 -0.814958
2004-08-23 07:20:56 51°10.974 2°43.261 21.303554 4.68045 32.69355 -0.814958
2004-08-23 07:20:58 51°10.972 2°43.249 21.294615 4.680555 32.694375 -0.814958
2004-08-23 07:21:06 51°10.965 2°43.203 21.294615 4.680555 32.694375 -0.814958
2004-08-23 07:21:09 51°10.962 2°43.186 21.327663 4.680344 32.693246 -0.781249
2004-08-23 07:21:14 51°10.958 2°43.157 21.304308 4.68045 32.694071 -0.781249
2004-08-23 07:21:21 51°10.951 2°43.117 21.310148 4.680239 32.692942 -0.781249
2004-08-23 07:21:26 51°10.946 2°43.088 21.31416 4.68045 32.694071 -0.781249
2004-08-23 07:21:31 51°10.941 2°43.059 21.302402 4.680239 32.692942 -0.781249
2004-08-23 07:21:34 51°10.938 2°43.042 21.302402 4.680239 32.692942 -0.781249
2004-08-23 07:21:41 51°10.932 2°43.002 21.31416 4.680133 32.692117 -0.781249
2004-08-23 07:21:46 51°10.927 2°42.973 21.29088 4.680345 32.694288 -0.781249
2004-08-23 07:21:50 51°10.924 2°42.95 21.291714 4.680134 32.692638 -0.781249
2004-08-23 07:21:54 51°10.92 2°42.927 21.35363 4.680134 32.693159 -0.74754
2004-08-23 07:22:01 51°10.914 2°42.887 21.296284 4.680134 32.692638 -0.781249
2004-08-23 07:22:05 51°10.91 2°42.864 21.313643 4.680028 32.692334 -0.781249
2004-08-23 07:22:14 51°10.901 2°42.812 21.340886 4.680028 32.693376 -0.814958
2004-08-23 07:22:18 51°10.898 2°42.789 21.304865 4.680134 32.694201 -0.814958
2004-08-23 07:22:25 51°10.891 2°42.749 21.316424 4.679923 32.692551 -0.814958
2004-08-23 07:22:29 51°10.888 2°42.726 21.317297 4.680028 32.693897 -0.781249
2004-08-23 07:22:33 51°10.884 2°42.703 21.317297 4.680028 32.693897 -0.781249
2004-08-23 07:22:37 51°10.881 2°42.68 21.31547 4.680028 32.694418 -0.74754
2004-08-23 07:22:42 51°10.876 2°42.651 21.317337 4.679923 32.693593 -0.781249
2004-08-23 07:22:49 51°10.87 2°42.61 21.314795 4.679817 32.692768 -0.74754
2004-08-23 07:22:55 51°10.865 2°42.575 21.310426 4.679923 32.693593 -0.781249
2004-08-23 07:22:57 51°10.863 2°42.564 21.337233 4.679817 32.693289 -0.814958
2004-08-23 07:23:05 51°10.856 2°42.518 21.337233 4.679817 32.693289 -0.814958
2004-08-23 07:23:09 51°10.853 2°42.495 21.315907 4.679817 32.69381 -0.781249
2004-08-23 07:23:14 51°10.848 2°42.466 21.312889 4.679712 32.692985 -0.814958
2004-08-23 07:23:17 51°10.845 2°42.448 21.331872 4.679817 32.69381 -0.781249
2004-08-23 07:23:25 51°10.838 2°42.402 21.332786 4.679817 32.694853 -0.781249
2004-08-23 07:23:34 51°10.83 2°42.35 21.318648 4.679712 32.693506 -0.781249
2004-08-23 07:23:38 51°10.826 2°42.327 21.343268 4.679606 32.693202 -0.814958
2004-08-23 07:23:45 51°10.819 2°42.287 21.322778 4.679712 32.694027 -0.781249
2004-08-23 07:23:49 51°10.815 2°42.264 21.34831 4.679395 32.692594 -0.781249
2004-08-23 07:23:55 51°10.81 2°42.228 21.321944 4.679606 32.693723 -0.814958
2004-08-23 07:23:58 51°10.808 2°42.211 21.329649 4.679606 32.693723 -0.781249
2004-08-23 07:24:05 51°10.802 2°42.171 21.329649 4.679606 32.693723 -0.781249
2004-08-23 07:24:10 51°10.797 2°42.142 21.346167 4.679606 32.694766 -0.781249
2004-08-23 07:24:14 51°10.793 2°42.119 21.342593 4.679501 32.694462 -0.781249
2004-08-23 07:24:19 51°10.788 2°42.09 21.333302 4.679395 32.693636 -0.814958
2004-08-23 07:24:25 51°10.783 2°42.055 21.33219 4.679395 32.693636 -0.781249
2004-08-23 07:24:29 51°10.779 2°42.032 21.33219 4.679395 32.693636 -0.781249
2004-08-23 07:24:34 51°10.775 2°42.003 21.32949 4.679395 32.693115 -0.781249
2004-08-23 07:24:38 51°10.772 2°41.98 21.355218 4.679501 32.694983 -0.814958
2004-08-23 07:24:45 51°10.766 2°41.939 21.343586 4.67929 32.693332 -0.781249
2004-08-23 07:24:54 51°10.758 2°41.887 21.3497 4.679184 32.693028 -0.74754
2004-08-23 07:24:59 51°10.754 2°41.858 21.3497 4.679184 32.693028 -0.74754
2004-08-23 07:25:05 51°10.748 2°41.824 21.347715 4.67929 32.694375 -0.781249
2004-08-23 07:25:10 51°10.743 2°41.795 21.377167 4.679184 32.694071 -0.781249
2004-08-23 07:25:14 51°10.74 2°41.771 21.336637 4.67929 32.694375 -0.814958
2004-08-23 07:25:19 51°10.735 2°41.742 21.347556 4.679079 32.692724 -0.781249
2004-08-23 07:25:25 51°10.73 2°41.708 21.342355 4.67929 32.694375 -0.781249
2004-08-23 07:25:30 51°10.725 2°41.679 21.342355 4.67929 32.694375 -0.781249
2004-08-23 07:25:34 51°10.722 2°41.656 21.35236 4.679079 32.693767 -0.814958
2004-08-23 07:25:37 51°10.719 2°41.638 21.34962 4.679184 32.694592 -0.814958
2004-08-23 07:25:45 51°10.712 2°41.592 21.34565 4.678973 32.692941 -0.814958
2004-08-23 07:25:50 51°10.707 2°41.563 21.356965 4.678868 32.692637 -0.781249
2004-08-23 07:25:55 51°10.703 2°41.534 21.351764 4.678973 32.693463 -0.781249
2004-08-23 07:25:59 51°10.699 2°41.511 21.351764 4.678973 32.693463 -0.781249
2004-08-23 07:26:05 51°10.693 2°41.476 21.356369 4.678973 32.694506 -0.781249
2004-08-23 07:26:10 51°10.689 2°41.447 21.348231 4.678973 32.693463 -0.814958
2004-08-23 07:26:14 51°10.685 2°41.424 21.347477 4.678762 32.692333 -0.814958
2004-08-23 07:26:18 51°10.682 2°41.401 21.344499 4.678868 32.69368 -0.814958
2004-08-23 07:26:25 51°10.676 2°41.36 21.377762 4.678868 32.694201 -0.814958
2004-08-23 07:26:29 51°10.673 2°41.337 21.364546 4.678762 32.693897 -0.781249
2004-08-23 07:26:35 51°10.668 2°41.302 21.364546 4.678762 32.693897 -0.781249
2004-08-23 07:26:38 51°10.665 2°41.285 21.363633 4.678868 32.694723 -0.814958
2004-08-23 07:26:45 51°10.659 2°41.244 21.357362 4.678762 32.693897 -0.781249
2004-08-23 07:26:50 51°10.653 2°41.215 21.385976 4.678657 32.693593 -0.781249
2004-08-23 07:26:55 51°10.649 2°41.186 21.364149 4.678868 32.695244 -0.781249
2004-08-23 07:26:58 51°10.646 2°41.169 21.373278 4.678657 32.693593 -0.814958
2004-08-23 07:27:05 51°10.64 2°41.128 21.373278 4.678657 32.693593 -0.814958
2004-08-23 07:27:10 51°10.635 2°41.099 21.366015 4.678762 32.694419 -0.781249
2004-08-23 07:27:14 51°10.632 2°41.076 21.359188 4.678551 32.692768 -0.814958
2004-08-23 07:27:19 51°10.627 2°41.047 21.357282 4.678657 32.694636 -0.848668
2004-08-23 07:27:25 51°10.623 2°41.012 21.373278 4.678657 32.694636 -0.74754
2004-08-23 07:27:30 51°10.618 2°40.983 21.366173 4.678551 32.693811 -0.781249
2004-08-23 07:27:35 51°10.614 2°40.954 21.366173 4.678551 32.693811 -0.781249
2004-08-23 07:27:38 51°10.611 2°40.937 21.387206 4.678551 32.694332 -0.781249
2004-08-23 07:27:45 51°10.605 2°40.896 21.373357 4.678551 32.694332 -0.781249
2004-08-23 07:27:50 51°10.601 2°40.867 21.385659 4.678446 32.694028 -0.781249
2004-08-23 07:27:55 51°10.596 2°40.838 21.372047 4.678446 32.694028 -0.74754
2004-08-23 07:27:57 51°10.594 2°40.826 21.369388 4.678446 32.694549 -0.814958
2004-08-23 07:28:05 51°10.587 2°40.779 21.369388 4.678446 32.694549 -0.814958
2004-08-23 07:28:10 51°10.583 2°40.751 21.388793 4.67834 32.693724 -0.74754
2004-08-23 07:28:15 51°10.579 2°40.721 21.365022 4.678446 32.694028 -0.781249
2004-08-23 07:28:19 51°10.575 2°40.698 21.380778 4.678235 32.69342 -0.781249
2004-08-23 07:28:25 51°10.57 2°40.663 21.381969 4.678446 32.695071 -0.814958
2004-08-23 07:28:30 51°10.566 2°40.634 21.371968 4.678446 32.695071 -0.814958
2004-08-23 07:28:35 51°10.562 2°40.604 21.371968 4.678446 32.695071 -0.814958
2004-08-23 07:28:39 51°10.559 2°40.581 21.385738 4.678235 32.693941 -0.814958
2004-08-23 07:28:45 51°10.554 2°40.546 21.379865 4.678235 32.693941 -0.781249
2004-08-23 07:28:49 51°10.551 2°40.523 21.413945 4.678129 32.693637 -0.781249
2004-08-23 07:28:54 51°10.546 2°40.493 21.400418 4.678129 32.694159 -0.814958
2004-08-23 07:28:57 51°10.544 2°40.476 21.400418 4.678129 32.694159 -0.814958
2004-08-23 07:29:05 51°10.537 2°40.429 21.385064 4.678235 32.694984 -0.781249
2004-08-23 07:29:10 51°10.532 2°40.4 21.40974 4.678024 32.693333 -0.814958
2004-08-23 07:29:15 51°10.528 2°40.371 21.414619 4.678129 32.695202 -0.814958
2004-08-23 07:29:18 51°10.525 2°40.354 21.386571 4.678024 32.693855 -0.781249
2004-08-23 07:29:25 51°10.518 2°40.313 21.409463 4.677918 32.69355 -0.781249
2004-08-23 07:29:30 51°10.514 2°40.284 21.381929 4.678024 32.693855 -0.781249
2004-08-23 07:29:35 51°10.509 2°40.256 21.381929 4.678024 32.693855 -0.781249
2004-08-23 07:29:38 51°10.506 2°40.238 21.400101 4.677813 32.693246 -0.781249
2004-08-23 07:29:45 51°10.5 2°40.198 21.394229 4.677918 32.69355 -0.781249
2004-08-23 07:29:53 51°10.493 2°40.151 21.416761 4.677813 32.693768 -0.814958
2004-08-23 07:30:00 51°10.487 2°40.111 21.412279 4.677813 32.693768 -0.814958
2004-08-23 07:30:05 51°10.482 2°40.082 21.412279 4.677813 32.693768 -0.814958
2004-08-23 07:30:09 51°10.479 2°40.059 21.391531 4.677813 32.693768 -0.781249
2004-08-23 07:30:15 51°10.474 2°40.024 21.418427 4.677813 32.694811 -0.781249
2004-08-23 07:30:19 51°10.47 2°40.001 21.391452 4.677707 32.693464 -0.781249
2004-08-23 07:30:25 51°10.465 2°39.966 21.421124 4.677707 32.693985 -0.814958
2004-08-23 07:30:30 51°10.46 2°39.937 21.393158 4.677707 32.693985 -0.814958
2004-08-23 07:30:34 51°10.457 2°39.914 21.393158 4.677707 32.693985 -0.814958
2004-08-23 07:30:39 51°10.452 2°39.885 21.408947 4.677707 32.693985 -0.814958
2004-08-23 07:30:45 51°10.446 2°39.851 21.418387 4.677707 32.694507 -0.74754
2004-08-23 07:30:50 51°10.442 2°39.822 21.396768 4.677707 32.694507 -0.814958
2004-08-23 07:30:55 51°10.437 2°39.793 21.409701 4.677496 32.693377 -0.781249
2004-08-23 07:31:00 51°10.433 2°39.764 21.393317 4.677707 32.694507 -0.814958
2004-08-23 07:31:05 51°10.429 2°39.736 21.393317 4.677707 32.694507 -0.814958
2004-08-23 07:31:10 51°10.425 2°39.707 21.410256 4.677496 32.693899 -0.814958
2004-08-23 07:31:14 51°10.421 2°39.684 21.405218 4.677496 32.69442 -0.814958
2004-08-23 07:31:18 51°10.418 2°39.66 21.412795 4.677602 32.695246 -0.74754
2004-08-23 07:31:25 51°10.411 2°39.62 21.40387 4.677285 32.692247 -0.814958
2004-08-23 07:31:30 51°10.407 2°39.591 21.426398 4.677391 32.694116 -0.814958
2004-08-23 07:31:34 51°10.403 2°39.568 21.426398 4.677391 32.694116 -0.814958
2004-08-23 07:31:40 51°10.398 2°39.533 21.404742 4.677496 32.693899 -0.74754
2004-08-23 07:31:43 51°10.395 2°39.516 21.419537 4.677391 32.694638 -0.781249
2004-08-23 07:31:49 51°10.39 2°39.481 21.413866 4.677391 32.694116 -0.814958
2004-08-23 07:31:54 51°10.386 2°39.452 21.404108 4.677286 32.693812 -0.781249
2004-08-23 07:31:58 51°10.383 2°39.429 21.433378 4.677286 32.693812 -0.814958
2004-08-23 07:32:05 51°10.377 2°39.388 21.433378 4.677286 32.693812 -0.814958
2004-08-23 07:32:09 51°10.373 2°39.365 21.416325 4.677286 32.693812 -0.814958
2004-08-23 07:32:14 51°10.369 2°39.336 21.438056 4.67718 32.692986 -0.781249
2004-08-23 07:32:18 51°10.365 2°39.313 21.448127 4.677286 32.694855 -0.74754
2004-08-23 07:32:25 51°10.36 2°39.272 21.426953 4.67718 32.694551 -0.781249
2004-08-23 07:32:30 51°10.355 2°39.243 21.426953 4.67718 32.694551 -0.781249
2004-08-23 07:32:34 51°10.352 2°39.22 21.427112 4.677075 32.693725 -0.781249
2004-08-23 07:32:39 51°10.347 2°39.191 21.444043 4.67718 32.694551 -0.781249
2004-08-23 07:32:45 51°10.342 2°39.156 21.435836 4.67718 32.694551 -0.814958
2004-08-23 07:32:50 51°10.338 2°39.127 21.451061 4.677075 32.694247 -0.814958
2004-08-23 07:32:55 51°10.333 2°39.099 21.445391 4.676969 32.693943 -0.781249
2004-08-23 07:33:00 51°10.329 2°39.07 21.445391 4.676969 32.693943 -0.781249
2004-08-23 07:33:05 51°10.324 2°39.041 21.432148 4.677075 32.694247 -0.74754
2004-08-23 07:33:10 51°10.32 2°39.012 21.423186 4.676969 32.693421 -0.781249
2004-08-23 07:33:14 51°10.317 2°38.988 21.432069 4.676969 32.693943 -0.781249
2004-08-23 07:33:18 51°10.313 2°38.965 21.438056 4.676969 32.693943 -0.814958
2004-08-23 07:33:25 51°10.308 2°38.925 21.427945 4.676864 32.693117 -0.814958
2004-08-23 07:33:30 51°10.303 2°38.896 21.437263 4.676864 32.693639 -0.814958
2004-08-23 07:33:34 51°10.301 2°38.872 21.437263 4.676864 32.693639 -0.814958
2004-08-23 07:33:40 51°10.296 2°38.837 21.436708 4.676758 32.693335 -0.74754
2004-08-23 07:33:43 51°10.293 2°38.82 21.430086 4.676758 32.692813 -0.781249
2004-08-23 07:33:49 51°10.289 2°38.785 21.445193 4.676653 32.693031 -0.781249
2004-08-23 07:33:53 51°10.286 2°38.761 21.461684 4.676758 32.693335 -0.74754
2004-08-23 07:34:00 51°10.28 2°38.721 21.445391 4.676758 32.693856 -0.848668
2004-08-23 07:34:05 51°10.276 2°38.692 21.445391 4.676758 32.693856 -0.848668
2004-08-23 07:34:09 51°10.272 2°38.669 21.496557 4.676653 32.693031 -0.814958
2004-08-23 07:34:15 51°10.267 2°38.635 21.44103 4.676653 32.693552 -0.814958
2004-08-23 07:34:19 51°10.263 2°38.612 21.46545 4.676547 32.693248 -0.814958
2004-08-23 07:34:25 51°10.258 2°38.577 21.446502 4.676653 32.693552 -0.814958
2004-08-23 07:34:30 51°10.253 2°38.549 21.451616 4.676653 32.694074 -0.74754
2004-08-23 07:34:34 51°10.25 2°38.526 21.451616 4.676653 32.694074 -0.74754
2004-08-23 07:34:38 51°10.246 2°38.503 21.462239 4.676547 32.69377 -0.781249
2004-08-23 07:34:45 51°10.24 2°38.463 21.439405 4.676653 32.694074 -0.814958
2004-08-23 07:34:50 51°10.236 2°38.434 21.449158 4.676336 32.692118 -0.814958
2004-08-23 07:34:53 51°10.233 2°38.416 21.448206 4.676547 32.69377 -0.814958
2004-08-23 07:35:02 51°10.226 2°38.364 21.460337 4.676336 32.69264 -0.781249
2004-08-23 07:35:07 51°10.222 2°38.335 21.465767 4.676442 32.693987 -0.781249
2004-08-23 07:35:13 51°10.217 2°38.301 21.465529 4.676442 32.693987 -0.814958
2004-08-23 07:35:18 51°10.213 2°38.272 21.457879 4.676336 32.693162 -0.814958
2004-08-23 07:35:22 51°10.21 2°38.25 21.457879 4.676336 32.693162 -0.814958
2004-08-23 07:35:28 51°10.206 2°38.215 21.443925 4.676336 32.693162 -0.814958
2004-08-23 07:35:33 51°10.201 2°38.186 21.478092 4.676231 32.693379 -0.781249
2004-08-23 07:35:37 51°10.198 2°38.163 21.455976 4.676336 32.694205 -0.781249
2004-08-23 07:35:42 51°10.194 2°38.134 21.461645 4.676231 32.692857 -0.781249
2004-08-23 07:35:46 51°10.191 2°38.111 21.472346 4.676231 32.693901 -0.814958
2004-08-23 07:35:53 51°10.186 2°38.071 21.472346 4.676231 32.693901 -0.814958
2004-08-23 07:35:58 51°10.182 2°38.042 21.471593 4.676125 32.692553 -0.814958
2004-08-23 07:36:02 51°10.178 2°38.019 21.474209 4.676125 32.693075 -0.781249
2004-08-23 07:36:08 51°10.172 2°37.984 21.484908 4.67602 32.692771 -0.781249
2004-08-23 07:36:13 51°10.168 2°37.955 21.457126 4.676231 32.694423 -0.781249
2004-08-23 07:36:17 51°10.164 2°37.932 21.45887 4.67602 32.692249 -0.781249
2004-08-23 07:36:22 51°10.16 2°37.903 21.45887 4.67602 32.692249 -0.781249
2004-08-23 07:36:26 51°10.156 2°37.88 21.480787 4.67602 32.693293 -0.781249
2004-08-23 07:36:33 51°10.149 2°37.839 21.456452 4.67602 32.692771 -0.781249
2004-08-23 07:36:38 51°10.145 2°37.81 21.481778 4.67602 32.692771 -0.781249
2004-08-23 07:36:42 51°10.141 2°37.787 21.472742 4.67602 32.693293 -0.781249
2004-08-23 07:36:48 51°10.135 2°37.752 21.472148 4.67602 32.693814 -0.814958
2004-08-23 07:36:53 51°10.131 2°37.723 21.472148 4.67602 32.693814 -0.814958
2004-08-23 07:36:58 51°10.126 2°37.694 21.466401 4.67602 32.693814 -0.781249
2004-08-23 07:37:02 51°10.123 2°37.671 21.475279 4.675914 32.69351 -0.814958
2004-08-23 07:37:07 51°10.119 2°37.642 21.489742 4.675914 32.69351 -0.814958
2004-08-23 07:37:13 51°10.113 2°37.607 21.482293 4.675914 32.69351 -0.781249
2004-08-23 07:37:18 51°10.109 2°37.578 21.482293 4.675914 32.69351 -0.781249
2004-08-23 07:37:22 51°10.106 2°37.554 21.483323 4.675703 32.691858 -0.781249
2004-08-23 07:37:27 51°10.101 2°37.525 21.487919 4.675809 32.693206 -0.781249
2004-08-23 07:37:33 51°10.096 2°37.49 21.523056 4.675703 32.692902 -0.781249
2004-08-23 07:37:38 51°10.092 2°37.461 21.473654 4.675809 32.693206 -0.781249
2004-08-23 07:37:43 51°10.087 2°37.432 21.511095 4.675598 32.692076 -0.781249
2004-08-23 07:37:45 51°10.086 2°37.42 21.474803 4.675703 32.692902 -0.781249
2004-08-23 07:37:52 51°10.08 2°37.379 21.474803 4.675703 32.692902 -0.781249
2004-08-23 07:37:57 51°10.075 2°37.35 21.500835 4.675598 32.692598 -0.781249
2004-08-23 07:38:03 51°10.071 2°37.315 21.474327 4.675703 32.693424 -0.74754
2004-08-23 07:38:07 51°10.067 2°37.292 21.50951 4.675598 32.69312 -0.814958
2004-08-23 07:38:13 51°10.062 2°37.257 21.513788 4.675809 32.694772 -0.781249
2004-08-23 07:38:18 51°10.058 2°37.227 21.513788 4.675809 32.694772 -0.781249
2004-08-23 07:38:22 51°10.055 2°37.204 21.4857 4.675703 32.694468 -0.814958
2004-08-23 07:38:28 51°10.049 2°37.169 21.508203 4.675598 32.693642 -0.781249
2004-08-23 07:38:33 51°10.044 2°37.14 21.487127 4.675492 32.692816 -0.781249
2004-08-23 07:38:38 51°10.04 2°37.111 21.499013 4.675387 32.692511 -0.781249
2004-08-23 07:38:42 51°10.036 2°37.087 21.484076 4.675387 32.69199 -0.814958
2004-08-23 07:38:47 51°10.031 2°37.058 21.533827 4.675492 32.693859 -0.781249
2004-08-23 07:38:53 51°10.026 2°37.023 21.533827 4.675492 32.693859 -0.781249
2004-08-23 07:38:58 51°10.022 2°36.993 21.490336 4.675492 32.693337 -0.781249
2004-08-23 07:39:02 51°10.019 2°36.969 21.496398 4.675387 32.693555 -0.814958
2004-08-23 07:39:07 51°10.015 2°36.94 21.495725 4.675281 32.692207 -0.814958
2004-08-23 07:39:13 51°10.012 2°36.904 21.424971 4.675387 32.69199 -0.814958
2004-08-23 07:39:18 51°10.01 2°36.873 21.472386 4.675281 32.692729 -0.781249
2004-08-23 07:39:23 51°10.009 2°36.843 21.472386 4.675281 32.692729 -0.781249
2004-08-23 07:39:25 51°10.008 2°36.831 21.456531 4.675387 32.693555 -0.781249
2004-08-23 07:39:32 51°10.007 2°36.789 21.492476 4.67507 32.691077 -0.781249
2004-08-23 07:39:37 51°10.007 2°36.759 21.488672 4.675281 32.693251 -0.781249
2004-08-23 07:39:43 51°10.007 2°36.722 21.519769 4.675281 32.693251 -0.781249
2004-08-23 07:39:47 51°10.007 2°36.698 21.545191 4.675281 32.693251 -0.814958
2004-08-23 07:39:53 51°10.006 2°36.662 21.545191 4.675281 32.693251 -0.814958
2004-08-23 07:39:57 51°10.007 2°36.637 21.508797 4.675176 32.692947 -0.781249
2004-08-23 07:40:02 51°10.006 2°36.607 21.53751 4.67507 32.692643 -0.814958
2004-08-23 07:40:05 51°10.007 2°36.589 21.529471 4.675176 32.693469 -0.814958
2004-08-23 07:40:13 51°10.006 2°36.54 21.549546 4.674965 32.692339 -0.74754
2004-08-23 07:40:18 51°10.006 2°36.51 21.537431 4.674965 32.692339 -0.814958
2004-08-23 07:40:21 51°10.006 2°36.492 21.537431 4.674965 32.692339 -0.814958
2004-08-23 07:40:28 51°10.006 2°36.45 21.519294 4.674965 32.692339 -0.781249
2004-08-23 07:40:33 51°10.005 2°36.419 21.535966 4.674965 32.69286 -0.814958
2004-08-23 07:40:38 51°10.005 2°36.389 21.539965 4.674859 32.692034 -0.781249
2004-08-23 07:40:43 51°10.005 2°36.359 21.529471 4.674754 32.69173 -0.781249
2004-08-23 07:40:48 51°10.006 2°36.329 21.487959 4.674859 32.692556 -0.781249
2004-08-23 07:40:53 51°10.007 2°36.299 21.487959 4.674859 32.692556 -0.781249
2004-08-23 07:40:57 51°10.008 2°36.275 21.496715 4.674754 32.691208 -0.781249
2004-08-23 07:41:02 51°10.01 2°36.245 21.510659 4.674859 32.692556 -0.781249
2004-08-23 07:41:06 51°10.011 2°36.221 21.52563 4.674859 32.693078 -0.814958
2004-08-23 07:41:13 51°10.014 2°36.179 21.540875 4.674754 32.692252 -0.814958
2004-08-23 07:41:17 51°10.016 2°36.155 21.540875 4.674754 32.692252 -0.814958
2004-08-23 07:41:22 51°10.018 2°36.125 21.554929 4.674648 32.691948 -0.781249
2004-08-23 07:41:26 51°10.02 2°36.101 21.545705 4.674648 32.691948 -0.74754
2004-08-23 07:41:33 51°10.022 2°36.06 21.565102 4.674648 32.691948 -0.74754
2004-08-23 07:41:38 51°10.024 2°36.03 21.549942 4.674754 32.692774 -0.74754
2004-08-23 07:41:43 51°10.026 2°36 21.55299 4.674648 32.691948 -0.74754
2004-08-23 07:41:48 51°10.028 2°35.97 21.55299 4.674648 32.691948 -0.74754
2004-08-23 07:41:53 51°10.03 2°35.94 21.552119 4.674648 32.692992 -0.781249
2004-08-23 07:41:58 51°10.032 2°35.91 21.551406 4.674437 32.690818 -0.814958
2004-08-23 07:42:03 51°10.035 2°35.88 21.546893 4.674543 32.692688 -0.74754
2004-08-23 07:42:08 51°10.037 2°35.851 21.570485 4.674543 32.692688 -0.781249
2004-08-23 07:42:13 51°10.039 2°35.821 21.541232 4.674648 32.693514 -0.781249
2004-08-23 07:42:17 51°10.041 2°35.797 21.579073 4.674226 32.691253 -0.781249
2004-08-23 07:42:21 51°10.042 2°35.773 21.579073 4.674226 32.691253 -0.781249
2004-08-23 07:42:27 51°10.045 2°35.737 21.541311 4.674437 32.691861 -0.814958
2004-08-23 07:42:33 51°10.048 2°35.702 21.567556 4.674332 32.692079 -0.781249
2004-08-23 07:42:37 51°10.05 2°35.678 21.546695 4.674437 32.692905 -0.781249
2004-08-23 07:42:42 51°10.054 2°35.649 21.504123 4.674437 32.691861 -0.781249
2004-08-23 07:42:48 51°10.06 2°35.614 21.434765 4.674226 32.690731 -0.781249
2004-08-23 07:42:50 51°10.062 2°35.603 21.434765 4.674226 32.690731 -0.781249
2004-08-23 07:42:57 51°10.075 2°35.566 21.429254 4.674437 32.692383 -0.781249
2004-08-23 07:43:02 51°10.086 2°35.542 21.432069 4.674226 32.691253 -0.781249
2004-08-23 07:43:08 51°10.1 2°35.514 21.442576 4.674332 32.692601 -0.814958
2004-08-23 07:43:13 51°10.114 2°35.495 21.453836 4.674121 32.690427 -0.814958
2004-08-23 07:43:17 51°10.126 2°35.48 21.467749 4.674226 32.691775 -0.814958
2004-08-23 07:43:23 51°10.145 2°35.461 21.467749 4.674226 32.691775 -0.814958
2004-08-23 07:43:27 51°10.158 2°35.451 21.463032 4.674121 32.691471 -0.74754
2004-08-23 07:43:33 51°10.179 2°35.438 21.460892 4.674121 32.691993 -0.814958
2004-08-23 07:43:38 51°10.197 2°35.431 21.472584 4.674016 32.691689 -0.781249
2004-08-23 07:43:42 51°10.212 2°35.428 21.474129 4.674121 32.693037 -0.781249
2004-08-23 07:43:47 51°10.231 2°35.426 21.472187 4.673805 32.690036 -0.814958
2004-08-23 07:43:52 51°10.25 2°35.427 21.472187 4.673805 32.690036 -0.814958
2004-08-23 07:43:58 51°10.272 2°35.433 21.469056 4.67391 32.691907 -0.781249
2004-08-23 07:44:03 51°10.291 2°35.44 21.460257 4.674121 32.693559 -0.814958
2004-08-23 07:44:05 51°10.298 2°35.444 21.508481 4.673805 32.691602 -0.781249
2004-08-23 07:44:13 51°10.327 2°35.458 21.565023 4.67391 32.691907 -0.781249
2004-08-23 07:44:18 51°10.344 2°35.469 21.572622 4.673805 32.69108 -0.781249
2004-08-23 07:44:23 51°10.362 2°35.48 21.572622 4.673805 32.69108 -0.781249
2004-08-23 07:44:25 51°10.369 2°35.485 21.575076 4.674016 32.692211 -0.781249
2004-08-23 07:44:33 51°10.397 2°35.505 21.577965 4.673488 32.68808 -0.781249
2004-08-23 07:44:38 51°10.414 2°35.518 21.559363 4.674121 32.693037 -0.74754
2004-08-23 07:44:43 51°10.431 2°35.532 21.560907 4.673805 32.691602 -0.781249
2004-08-23 07:44:45 51°10.438 2°35.537 21.560907 4.673805 32.691602 -0.781249
2004-08-23 07:44:53 51°10.466 2°35.559 21.59126 4.673594 32.68995 -0.781249
2004-08-23 07:44:58 51°10.483 2°35.573 21.575313 4.67391 32.692951 -0.781249
2004-08-23 07:45:02 51°10.496 2°35.584 21.586116 4.673699 32.69182 -0.814958
2004-08-23 07:45:06 51°10.51 2°35.595 21.581209 4.673699 32.69182 -0.814958
2004-08-23 07:45:12 51°10.53 2°35.612 21.60119 4.673488 32.690168 -0.781249
2004-08-23 07:45:18 51°10.551 2°35.629 21.60119 4.673488 32.690168 -0.781249
2004-08-23 07:45:23 51°10.568 2°35.643 21.578162 4.67391 32.692951 -0.781249
2004-08-23 07:45:28 51°10.585 2°35.658 21.583188 4.673488 32.689646 -0.74754
2004-08-23 07:45:33 51°10.602 2°35.672 21.58022 4.673699 32.691298 -0.781249
2004-08-23 07:45:38 51°10.618 2°35.687 21.577727 4.673488 32.69069 -0.74754
2004-08-23 07:45:43 51°10.635 2°35.702 21.580537 4.673383 32.690908 -0.781249
2004-08-23 07:45:45 51°10.642 2°35.709 21.580537 4.673383 32.690908 -0.781249
2004-08-23 07:45:53 51°10.668 2°35.733 21.581882 4.673594 32.69256 -0.74754
2004-08-23 07:46:03 51°10.702 2°35.764 21.594702 4.673277 32.690081 -0.814958
2004-08-23 07:46:07 51°10.715 2°35.776 21.60566 4.673277 32.690081 -0.814958
2004-08-23 07:46:13 51°10.736 2°35.795 21.594623 4.673488 32.691734 -0.814958
2004-08-23 07:46:18 51°10.752 2°35.81 21.596759 4.673383 32.69143 -0.781249
2004-08-23 07:46:23 51°10.769 2°35.825 21.596759 4.673383 32.69143 -0.781249
2004-08-23 07:46:28 51°10.786 2°35.84 21.597352 4.673383 32.69143 -0.74754
2004-08-23 07:46:32 51°10.799 2°35.852 21.619741 4.673172 32.689777 -0.74754
2004-08-23 07:46:37 51°10.816 2°35.867 21.599133 4.673488 32.692256 -0.781249
2004-08-23 07:46:42 51°10.833 2°35.882 21.602733 4.673277 32.691126 -0.781249
2004-08-23 07:46:46 51°10.846 2°35.894 21.598816 4.673172 32.689777 -0.74754
2004-08-23 07:46:53 51°10.87 2°35.915 21.598816 4.673172 32.689777 -0.74754
2004-08-23 07:46:58 51°10.886 2°35.93 21.601032 4.673172 32.690299 -0.74754
2004-08-23 07:47:03 51°10.903 2°35.945 21.596284 4.673383 32.691952 -0.814958
2004-08-23 07:47:07 51°10.916 2°35.957 21.605937 4.673172 32.690821 -0.781249
2004-08-23 07:47:13 51°10.936 2°35.975 21.605779 4.673277 32.691648 -0.781249
2004-08-23 07:47:18 51°10.953 2°35.989 21.600755 4.673066 32.689995 -0.781249
2004-08-23 07:47:23 51°10.97 2°36.004 21.600755 4.673066 32.689995 -0.781249
2004-08-23 07:47:28 51°10.987 2°36.019 21.610763 4.673277 32.691648 -0.814958
2004-08-23 07:47:33 51°11.003 2°36.034 21.614085 4.67275 32.68856 -0.781249
2004-08-23 07:47:37 51°11.017 2°36.045 21.615509 4.673277 32.69217 -0.781249
2004-08-23 07:47:45 51°11.044 2°36.068 21.600952 4.673172 32.691343 -0.781249
2004-08-23 07:47:52 51°11.068 2°36.088 21.607005 4.673172 32.691866 -0.814958
2004-08-23 07:47:57 51°11.085 2°36.103 21.610684 4.672961 32.690735 -0.814958
2004-08-23 07:48:05 51°11.112 2°36.126 21.606807 4.672961 32.690735 -0.74754
2004-08-23 07:48:12 51°11.135 2°36.146 21.613927 4.672855 32.690431 -0.781249
2004-08-23 07:48:17 51°11.152 2°36.161 21.613927 4.672855 32.690431 -0.781249
2004-08-23 07:48:25 51°11.178 2°36.185 21.619108 4.672855 32.690431 -0.781249
2004-08-23 07:48:32 51°11.202 2°36.206 21.617882 4.672961 32.691257 -0.781249
2004-08-23 07:48:37 51°11.219 2°36.22 21.623894 4.672961 32.691779 -0.781249
2004-08-23 07:48:45 51°11.246 2°36.243 21.627611 4.67275 32.690649 -0.814958
2004-08-23 07:48:52 51°11.269 2°36.264 21.627571 4.672644 32.690344 -0.814958
2004-08-23 07:48:57 51°11.286 2°36.278 21.624882 4.67275 32.691171 -0.781249
2004-08-23 07:49:02 51°11.303 2°36.293 21.616379 4.67275 32.691171 -0.781249
2004-08-23 07:49:06 51°11.316 2°36.305 21.615311 4.67275 32.690649 -0.781249
2004-08-23 07:49:11 51°11.333 2°36.32 21.615311 4.67275 32.690649 -0.781249
2004-08-23 07:49:17 51°11.353 2°36.338 21.60566 4.672961 32.692302 -0.781249
2004-08-23 07:49:21 51°11.366 2°36.35 21.607084 4.67275 32.690649 -0.814958
2004-08-23 07:49:27 51°11.386 2°36.369 21.622351 4.672328 32.687865 -0.814958
2004-08-23 07:49:32 51°11.402 2°36.385 21.626622 4.67275 32.691693 -0.781249
2004-08-23 07:49:37 51°11.418 2°36.401 21.62073 4.67275 32.691693 -0.781249
2004-08-23 07:49:41 51°11.431 2°36.413 21.650148 4.672433 32.689736 -0.781249
2004-08-23 07:49:46 51°11.448 2°36.429 21.650148 4.672433 32.689736 -0.781249
2004-08-23 07:49:50 51°11.46 2°36.442 21.633384 4.672644 32.691389 -0.781249
2004-08-23 07:49:54 51°11.473 2°36.455 21.656473 4.672539 32.690562 -0.74754
2004-08-23 07:50:02 51°11.499 2°36.48 21.639473 4.672539 32.691607 -0.814958
2004-08-23 07:50:05 51°11.509 2°36.49 21.643704 4.672433 32.69078 -0.781249
2004-08-23 07:50:12 51°11.532 2°36.512 21.645641 4.672433 32.69078 -0.814958
2004-08-23 07:50:17 51°11.548 2°36.528 21.645641 4.672433 32.69078 -0.814958
2004-08-23 07:50:22 51°11.565 2°36.544 21.665327 4.672433 32.691303 -0.781249
2004-08-23 07:50:25 51°11.574 2°36.553 21.651808 4.672539 32.692129 -0.74754
2004-08-23 07:50:31 51°11.594 2°36.572 21.645009 4.672222 32.68965 -0.781249
2004-08-23 07:50:37 51°11.614 2°36.591 21.648448 4.672433 32.691303 -0.781249
2004-08-23 07:50:42 51°11.63 2°36.607 21.638406 4.672433 32.691825 -0.781249
2004-08-23 07:50:47 51°11.647 2°36.623 21.638406 4.672433 32.691825 -0.781249
2004-08-23 07:50:49 51°11.653 2°36.629 21.645483 4.672433 32.691303 -0.781249
2004-08-23 07:50:57 51°11.679 2°36.655 21.645404 4.672328 32.690998 -0.781249
2004-08-23 07:51:02 51°11.696 2°36.671 21.653903 4.672117 32.689868 -0.781249
2004-08-23 07:51:05 51°11.705 2°36.68 21.656196 4.672222 32.690694 -0.781249
2004-08-23 07:51:12 51°11.728 2°36.702 21.670386 4.672222 32.690694 -0.814958
2004-08-23 07:51:17 51°11.744 2°36.718 21.670386 4.672222 32.690694 -0.814958
2004-08-23 07:51:22 51°11.76 2°36.735 21.639197 4.672328 32.692043 -0.781249
2004-08-23 07:51:25 51°11.77 2°36.745 21.645641 4.672328 32.692043 -0.814958
2004-08-23 07:51:32 51°11.793 2°36.768 21.652678 4.672222 32.691216 -0.781249
2004-08-23 07:51:37 51°11.809 2°36.785 21.664141 4.672011 32.689563 -0.781249
2004-08-23 07:51:42 51°11.825 2°36.801 21.658884 4.672222 32.691739 -0.781249
2004-08-23 07:51:47 51°11.841 2°36.818 21.658884 4.672222 32.691739 -0.781249
2004-08-23 07:51:50 51°11.85 2°36.828 21.656789 4.672222 32.691739 -0.781249
2004-08-23 07:51:57 51°11.873 2°36.852 21.684098 4.671906 32.689781 -0.814958
2004-08-23 07:52:01 51°11.886 2°36.864 21.691013 4.672011 32.690608 -0.814958
2004-08-23 07:52:05 51°11.898 2°36.878 21.665129 4.672011 32.69113 -0.781249
2004-08-23 07:52:12 51°11.92 2°36.902 21.663311 4.6718 32.69 -0.781249
2004-08-23 07:52:17 51°11.936 2°36.919 21.663311 4.6718 32.69 -0.781249
2004-08-23 07:52:22 51°11.951 2°36.937 21.662995 4.672011 32.691653 -0.781249
2004-08-23 07:52:26 51°11.964 2°36.951 21.678803 4.671906 32.690826 -0.814958
2004-08-23 07:52:32 51°11.982 2°36.972 21.672994 4.672011 32.691653 -0.781249
2004-08-23 07:52:37 51°11.998 2°36.989 21.677025 4.6718 32.690522 -0.781249
2004-08-23 07:52:41 51°12.01 2°37.003 21.684414 4.671906 32.691348 -0.781249
2004-08-23 07:52:47 51°12.029 2°37.024 21.684414 4.671906 32.691348 -0.781249
2004-08-23 07:52:52 51°12.045 2°37.042 21.681965 4.6718 32.691044 -0.781249
2004-08-23 07:52:57 51°12.06 2°37.059 21.687022 4.671695 32.690218 -0.781249
2004-08-23 07:53:02 51°12.076 2°37.077 21.687852 4.671906 32.691871 -0.781249
2004-08-23 07:53:05 51°12.085 2°37.087 21.705275 4.6718 32.691044 -0.781249
2004-08-23 07:53:12 51°12.107 2°37.112 21.705275 4.6718 32.691044 -0.781249
2004-08-23 07:53:17 51°12.123 2°37.13 21.700376 4.671589 32.689913 -0.814958
2004-08-23 07:53:21 51°12.135 2°37.144 21.696544 4.6718 32.692089 -0.781249
2004-08-23 07:53:26 51°12.151 2°37.161 21.691092 4.671695 32.691262 -0.781249
2004-08-23 07:53:32 51°12.169 2°37.182 21.687259 4.671378 32.688782 -0.781249
2004-08-23 07:53:37 51°12.185 2°37.2 21.695596 4.671589 32.690958 -0.781249
2004-08-23 07:53:42 51°12.2 2°37.218 21.690934 4.6718 32.692611 -0.781249
2004-08-23 07:53:47 51°12.216 2°37.236 21.690934 4.6718 32.692611 -0.781249
2004-08-23 07:53:50 51°12.225 2°37.246 21.684889 4.671378 32.689305 -0.814958
2004-08-23 07:53:57 51°12.247 2°37.271 21.702983 4.671695 32.692307 -0.781249
2004-08-23 07:54:01 51°12.26 2°37.285 21.698835 4.671484 32.690654 -0.781249
2004-08-23 07:54:05 51°12.272 2°37.299 21.708198 4.671695 32.692829 -0.781249
2004-08-23 07:54:12 51°12.294 2°37.323 21.724746 4.671484 32.691176 -0.781249
2004-08-23 07:54:17 51°12.31 2°37.34 21.724746 4.671484 32.691176 -0.781249
2004-08-23 07:54:22 51°12.326 2°37.357 21.687338 4.671484 32.691176 -0.781249
2004-08-23 07:54:27 51°12.342 2°37.374 21.699428 4.671589 32.692003 -0.814958
2004-08-23 07:54:29 51°12.348 2°37.381 21.679594 4.671484 32.691176 -0.814958
2004-08-23 07:54:38 51°12.376 2°37.413 21.696663 4.671378 32.690872 -0.814958
2004-08-23 07:54:42 51°12.388 2°37.427 21.690618 4.671484 32.691176 -0.781249
2004-08-23 07:54:45 51°12.398 2°37.438 21.690618 4.671484 32.691176 -0.781249
2004-08-23 07:54:52 51°12.419 2°37.463 21.714241 4.671273 32.690568 -0.74754
2004-08-23 07:54:57 51°12.435 2°37.481 21.701601 4.671273 32.69109 -0.814958
2004-08-23 07:55:02 51°12.451 2°37.498 21.712503 4.671589 32.69357 -0.814958
2004-08-23 07:55:05 51°12.46 2°37.509 21.73217 4.671168 32.690786 -0.814958
2004-08-23 07:55:12 51°12.482 2°37.533 21.724351 4.671168 32.690786 -0.781249
2004-08-23 07:55:17 51°12.498 2°37.55 21.724351 4.671168 32.690786 -0.781249
2004-08-23 07:55:22 51°12.515 2°37.567 21.737146 4.671062 32.689959 -0.74754
2004-08-23 07:55:27 51°12.53 2°37.584 21.714873 4.671273 32.691612 -0.781249
2004-08-23 07:55:30 51°12.539 2°37.595 21.708593 4.671273 32.691612 -0.781249
2004-08-23 07:55:37 51°12.561 2°37.619 21.709699 4.671273 32.691612 -0.781249
2004-08-23 07:55:41 51°12.574 2°37.633 21.737027 4.670957 32.689655 -0.781249
2004-08-23 07:55:46 51°12.59 2°37.65 21.737027 4.670957 32.689655 -0.781249
2004-08-23 07:55:51 51°12.605 2°37.668 21.710252 4.671168 32.691831 -0.781249
2004-08-23 07:55:54 51°12.615 2°37.678 21.736474 4.671062 32.690482 -0.781249
2004-08-23 07:56:01 51°12.637 2°37.702 21.720916 4.670957 32.6907 -0.781249
2004-08-23 07:56:04 51°12.647 2°37.712 21.726523 4.670851 32.689873 -0.74754
2004-08-23 07:56:09 51°12.663 2°37.729 21.733868 4.670957 32.691222 -0.781249
2004-08-23 07:56:17 51°12.688 2°37.756 21.733868 4.670957 32.691222 -0.781249
2004-08-23 07:56:22 51°12.704 2°37.773 21.721232 4.670851 32.689873 -0.781249
2004-08-23 07:56:27 51°12.72 2°37.79 21.719296 4.670851 32.690395 -0.814958
2004-08-23 07:56:29 51°12.726 2°37.797 21.716176 4.670957 32.691222 -0.781249
2004-08-23 07:56:38 51°12.755 2°37.828 21.729209 4.670957 32.691222 -0.781249
2004-08-23 07:56:42 51°12.767 2°37.842 21.713728 4.671168 32.692876 -0.781249
2004-08-23 07:56:46 51°12.78 2°37.856 21.713728 4.671168 32.692876 -0.781249
2004-08-23 07:56:52 51°12.798 2°37.877 21.723127 4.670746 32.690091 -0.781249
2004-08-23 07:56:57 51°12.814 2°37.895 21.726366 4.670851 32.690918 -0.814958
2004-08-23 07:57:02 51°12.83 2°37.912 21.742239 4.670746 32.690614 -0.781249
2004-08-23 07:57:07 51°12.846 2°37.929 21.738685 4.670746 32.690614 -0.781249
2004-08-23 07:57:11 51°12.858 2°37.943 21.738685 4.670746 32.690614 -0.781249
2004-08-23 07:57:17 51°12.878 2°37.963 21.745674 4.670746 32.691136 -0.781249
2004-08-23 07:57:21 51°12.89 2°37.977 21.738685 4.670851 32.692485 -0.781249
2004-08-23 07:57:25 51°12.903 2°37.99 21.741686 4.670851 32.692485 -0.781249
2004-08-23 07:57:32 51°12.925 2°38.014 21.735329 4.670746 32.691659 -0.814958
2004-08-23 07:57:35 51°12.935 2°38.024 21.734579 4.67064 32.691354 -0.814958
2004-08-23 07:57:42 51°12.957 2°38.047 21.737027 4.670535 32.690005 -0.814958
2004-08-23 07:57:45 51°12.966 2°38.058 21.737027 4.670535 32.690005 -0.814958
2004-08-23 07:57:52 51°12.989 2°38.082 21.740699 4.670851 32.693008 -0.814958
2004-08-23 07:57:57 51°13.004 2°38.098 21.747727 4.670429 32.690223 -0.781249
2004-08-23 07:58:02 51°13.02 2°38.115 21.736316 4.67064 32.691877 -0.781249